<?xml version="1.0" encoding="UTF-8" standalone="no" ?>
<gpx xmlns="http://www.topografix.com/GPX/1/1" xmlns:xsi="http://www.w3.org/2001/XMLSchema-instance" xsi:schemaLocation="http://www.topografix.com/GPX/1/1 http://www.topografix.com/GPX/1/1/gpx.xsd" version="1.1" creator="VisuGPX - https://www.visugpx.com">
  <metadata>
    <name>IBM / Ambonnets avec Nico</name>
    <desc><![CDATA[                                             ]]></desc>
  </metadata>
  <trk>
    <name><![CDATA[Track 001]]></name>
    <desc><![CDATA[28 mai 2011  6:03 pm]]></desc>
    <trkseg>
      <trkpt lat="43.73183" lon="7.14932">
        <ele>290.661204</ele>
        <time>2011-05-28T16:03:44Z</time>
      </trkpt>
      <trkpt lat="43.73183" lon="7.14932">
        <ele>290.661479</ele>
        <time>2011-05-28T16:04:03Z</time>
      </trkpt>
      <trkpt lat="43.73192" lon="7.14946">
        <ele>290.668348</ele>
        <time>2011-05-28T16:04:30Z</time>
      </trkpt>
      <trkpt lat="43.73203" lon="7.14962">
        <ele>290.673434</ele>
        <time>2011-05-28T16:04:33Z</time>
      </trkpt>
      <trkpt lat="43.7321" lon="7.14973">
        <ele>291.727509</ele>
        <time>2011-05-28T16:04:35Z</time>
      </trkpt>
      <trkpt lat="43.73212" lon="7.14986">
        <ele>298.104541</ele>
        <time>2011-05-28T16:04:37Z</time>
      </trkpt>
      <trkpt lat="43.73213" lon="7.15001">
        <ele>311.004044</ele>
        <time>2011-05-28T16:04:40Z</time>
      </trkpt>
      <trkpt lat="43.73212" lon="7.15019">
        <ele>323.90193</ele>
        <time>2011-05-28T16:04:43Z</time>
      </trkpt>
      <trkpt lat="43.73211" lon="7.15032">
        <ele>331.154802</ele>
        <time>2011-05-28T16:04:45Z</time>
      </trkpt>
      <trkpt lat="43.7321" lon="7.1505">
        <ele>333.579502</ele>
        <time>2011-05-28T16:04:48Z</time>
      </trkpt>
      <trkpt lat="43.73209" lon="7.15066">
        <ele>333.712129</ele>
        <time>2011-05-28T16:04:51Z</time>
      </trkpt>
      <trkpt lat="43.73208" lon="7.15081">
        <ele>333.319037</ele>
        <time>2011-05-28T16:04:54Z</time>
      </trkpt>
      <trkpt lat="43.73207" lon="7.15095">
        <ele>333.145753</ele>
        <time>2011-05-28T16:04:57Z</time>
      </trkpt>
      <trkpt lat="43.73206" lon="7.15109">
        <ele>333.325011</ele>
        <time>2011-05-28T16:05:00Z</time>
      </trkpt>
      <trkpt lat="43.73206" lon="7.15124">
        <ele>333.740705</ele>
        <time>2011-05-28T16:05:03Z</time>
      </trkpt>
      <trkpt lat="43.73204" lon="7.15141">
        <ele>334.246096</ele>
        <time>2011-05-28T16:05:06Z</time>
      </trkpt>
      <trkpt lat="43.73206" lon="7.15159">
        <ele>334.755728</ele>
        <time>2011-05-28T16:05:09Z</time>
      </trkpt>
      <trkpt lat="43.73208" lon="7.15178">
        <ele>335.240703</ele>
        <time>2011-05-28T16:05:12Z</time>
      </trkpt>
      <trkpt lat="43.73211" lon="7.15198">
        <ele>336.025486</ele>
        <time>2011-05-28T16:05:15Z</time>
      </trkpt>
      <trkpt lat="43.73213" lon="7.15221">
        <ele>337.584798</ele>
        <time>2011-05-28T16:05:18Z</time>
      </trkpt>
      <trkpt lat="43.73215" lon="7.15246">
        <ele>339.724617</ele>
        <time>2011-05-28T16:05:21Z</time>
      </trkpt>
      <trkpt lat="43.7322" lon="7.15271">
        <ele>341.675226</ele>
        <time>2011-05-28T16:05:24Z</time>
      </trkpt>
      <trkpt lat="43.73227" lon="7.15296">
        <ele>342.906832</ele>
        <time>2011-05-28T16:05:27Z</time>
      </trkpt>
      <trkpt lat="43.73231" lon="7.15309">
        <ele>343.382866</ele>
        <time>2011-05-28T16:05:29Z</time>
      </trkpt>
      <trkpt lat="43.73242" lon="7.15319">
        <ele>343.406095</ele>
        <time>2011-05-28T16:05:32Z</time>
      </trkpt>
      <trkpt lat="43.73252" lon="7.15326">
        <ele>343.301531</ele>
        <time>2011-05-28T16:05:35Z</time>
      </trkpt>
      <trkpt lat="43.73252" lon="7.15326">
        <ele>343.220467</ele>
        <time>2011-05-28T16:05:39Z</time>
      </trkpt>
      <trkpt lat="43.73266" lon="7.15343">
        <ele>343.185119</ele>
        <time>2011-05-28T16:05:59Z</time>
      </trkpt>
      <trkpt lat="43.73264" lon="7.15357">
        <ele>343.175068</ele>
        <time>2011-05-28T16:06:02Z</time>
      </trkpt>
      <trkpt lat="43.73261" lon="7.15369">
        <ele>343.137225</ele>
        <time>2011-05-28T16:06:04Z</time>
      </trkpt>
      <trkpt lat="43.73255" lon="7.15392">
        <ele>343.034323</ele>
        <time>2011-05-28T16:06:07Z</time>
      </trkpt>
      <trkpt lat="43.73251" lon="7.1541">
        <ele>342.879117</ele>
        <time>2011-05-28T16:06:09Z</time>
      </trkpt>
      <trkpt lat="43.73249" lon="7.15424">
        <ele>342.443517</ele>
        <time>2011-05-28T16:06:11Z</time>
      </trkpt>
      <trkpt lat="43.73244" lon="7.15448">
        <ele>341.320432</ele>
        <time>2011-05-28T16:06:14Z</time>
      </trkpt>
      <trkpt lat="43.73241" lon="7.15463">
        <ele>339.562533</ele>
        <time>2011-05-28T16:06:16Z</time>
      </trkpt>
      <trkpt lat="43.73241" lon="7.15477">
        <ele>337.647039</ele>
        <time>2011-05-28T16:06:19Z</time>
      </trkpt>
      <trkpt lat="43.73236" lon="7.15489">
        <ele>335.788018</ele>
        <time>2011-05-28T16:06:23Z</time>
      </trkpt>
      <trkpt lat="43.73233" lon="7.15503">
        <ele>333.973119</ele>
        <time>2011-05-28T16:06:26Z</time>
      </trkpt>
      <trkpt lat="43.73232" lon="7.1552">
        <ele>332.454031</ele>
        <time>2011-05-28T16:06:29Z</time>
      </trkpt>
      <trkpt lat="43.7323" lon="7.15535">
        <ele>331.521265</ele>
        <time>2011-05-28T16:06:32Z</time>
      </trkpt>
      <trkpt lat="43.73229" lon="7.15552">
        <ele>331.068199</ele>
        <time>2011-05-28T16:06:35Z</time>
      </trkpt>
      <trkpt lat="43.73228" lon="7.15565">
        <ele>330.642269</ele>
        <time>2011-05-28T16:06:37Z</time>
      </trkpt>
      <trkpt lat="43.73225" lon="7.15586">
        <ele>329.978784</ele>
        <time>2011-05-28T16:06:40Z</time>
      </trkpt>
      <trkpt lat="43.73226" lon="7.15608">
        <ele>328.935216</ele>
        <time>2011-05-28T16:06:43Z</time>
      </trkpt>
      <trkpt lat="43.73227" lon="7.1563">
        <ele>327.443903</ele>
        <time>2011-05-28T16:06:46Z</time>
      </trkpt>
      <trkpt lat="43.73232" lon="7.15651">
        <ele>325.79615</ele>
        <time>2011-05-28T16:06:49Z</time>
      </trkpt>
      <trkpt lat="43.73237" lon="7.15671">
        <ele>324.389999</ele>
        <time>2011-05-28T16:06:52Z</time>
      </trkpt>
      <trkpt lat="43.73241" lon="7.1569">
        <ele>323.23479</ele>
        <time>2011-05-28T16:06:55Z</time>
      </trkpt>
      <trkpt lat="43.73245" lon="7.15702">
        <ele>322.188762</ele>
        <time>2011-05-28T16:06:57Z</time>
      </trkpt>
      <trkpt lat="43.73251" lon="7.1572">
        <ele>321.1429</ele>
        <time>2011-05-28T16:07:00Z</time>
      </trkpt>
      <trkpt lat="43.73258" lon="7.15738">
        <ele>320.124304</ele>
        <time>2011-05-28T16:07:03Z</time>
      </trkpt>
      <trkpt lat="43.73263" lon="7.1575">
        <ele>319.255887</ele>
        <time>2011-05-28T16:07:05Z</time>
      </trkpt>
      <trkpt lat="43.73268" lon="7.15761">
        <ele>318.622173</ele>
        <time>2011-05-28T16:07:07Z</time>
      </trkpt>
      <trkpt lat="43.73276" lon="7.15778">
        <ele>318.176077</ele>
        <time>2011-05-28T16:07:10Z</time>
      </trkpt>
      <trkpt lat="43.73282" lon="7.15795">
        <ele>317.856723</ele>
        <time>2011-05-28T16:07:13Z</time>
      </trkpt>
      <trkpt lat="43.73287" lon="7.15808">
        <ele>317.671115</ele>
        <time>2011-05-28T16:07:15Z</time>
      </trkpt>
      <trkpt lat="43.73293" lon="7.15829">
        <ele>317.603864</ele>
        <time>2011-05-28T16:07:18Z</time>
      </trkpt>
      <trkpt lat="43.73297" lon="7.15853">
        <ele>317.598484</ele>
        <time>2011-05-28T16:07:21Z</time>
      </trkpt>
      <trkpt lat="43.73298" lon="7.15869">
        <ele>317.609101</ele>
        <time>2011-05-28T16:07:23Z</time>
      </trkpt>
      <trkpt lat="43.73299" lon="7.15886">
        <ele>317.617294</ele>
        <time>2011-05-28T16:07:25Z</time>
      </trkpt>
      <trkpt lat="43.733" lon="7.1591">
        <ele>317.621754</ele>
        <time>2011-05-28T16:07:28Z</time>
      </trkpt>
      <trkpt lat="43.733" lon="7.15936">
        <ele>317.627334</ele>
        <time>2011-05-28T16:07:31Z</time>
      </trkpt>
      <trkpt lat="43.73301" lon="7.15966">
        <ele>317.63549</ele>
        <time>2011-05-28T16:07:34Z</time>
      </trkpt>
      <trkpt lat="43.73303" lon="7.15998">
        <ele>317.642142</ele>
        <time>2011-05-28T16:07:37Z</time>
      </trkpt>
      <trkpt lat="43.73305" lon="7.16031">
        <ele>317.644819</ele>
        <time>2011-05-28T16:07:40Z</time>
      </trkpt>
      <trkpt lat="43.73305" lon="7.16051">
        <ele>317.639747</ele>
        <time>2011-05-28T16:07:42Z</time>
      </trkpt>
      <trkpt lat="43.73304" lon="7.16082">
        <ele>317.584983</ele>
        <time>2011-05-28T16:07:45Z</time>
      </trkpt>
      <trkpt lat="43.733" lon="7.16116">
        <ele>317.431026</ele>
        <time>2011-05-28T16:07:48Z</time>
      </trkpt>
      <trkpt lat="43.73296" lon="7.16137">
        <ele>317.210025</ele>
        <time>2011-05-28T16:07:50Z</time>
      </trkpt>
      <trkpt lat="43.7329" lon="7.16159">
        <ele>316.965743</ele>
        <time>2011-05-28T16:07:52Z</time>
      </trkpt>
      <trkpt lat="43.7328" lon="7.16192">
        <ele>316.63973</ele>
        <time>2011-05-28T16:07:55Z</time>
      </trkpt>
      <trkpt lat="43.73272" lon="7.16213">
        <ele>316.175801</ele>
        <time>2011-05-28T16:07:57Z</time>
      </trkpt>
      <trkpt lat="43.7326" lon="7.16243">
        <ele>315.606435</ele>
        <time>2011-05-28T16:08:00Z</time>
      </trkpt>
      <trkpt lat="43.73253" lon="7.16261">
        <ele>314.900331</ele>
        <time>2011-05-28T16:08:02Z</time>
      </trkpt>
      <trkpt lat="43.73241" lon="7.16285">
        <ele>313.992475</ele>
        <time>2011-05-28T16:08:05Z</time>
      </trkpt>
      <trkpt lat="43.73234" lon="7.16299">
        <ele>312.800459</ele>
        <time>2011-05-28T16:08:07Z</time>
      </trkpt>
      <trkpt lat="43.73224" lon="7.16319">
        <ele>311.266394</ele>
        <time>2011-05-28T16:08:10Z</time>
      </trkpt>
      <trkpt lat="43.73217" lon="7.16331">
        <ele>309.428494</ele>
        <time>2011-05-28T16:08:12Z</time>
      </trkpt>
      <trkpt lat="43.73208" lon="7.16349">
        <ele>307.481785</ele>
        <time>2011-05-28T16:08:15Z</time>
      </trkpt>
      <trkpt lat="43.73201" lon="7.1636">
        <ele>305.666314</ele>
        <time>2011-05-28T16:08:17Z</time>
      </trkpt>
      <trkpt lat="43.73191" lon="7.16378">
        <ele>304.157774</ele>
        <time>2011-05-28T16:08:20Z</time>
      </trkpt>
      <trkpt lat="43.73181" lon="7.16395">
        <ele>302.965247</ele>
        <time>2011-05-28T16:08:23Z</time>
      </trkpt>
      <trkpt lat="43.73175" lon="7.16405">
        <ele>302.029011</ele>
        <time>2011-05-28T16:08:25Z</time>
      </trkpt>
      <trkpt lat="43.7317" lon="7.16415">
        <ele>301.203906</ele>
        <time>2011-05-28T16:08:27Z</time>
      </trkpt>
      <trkpt lat="43.73162" lon="7.16431">
        <ele>300.272212</ele>
        <time>2011-05-28T16:08:30Z</time>
      </trkpt>
      <trkpt lat="43.73156" lon="7.16442">
        <ele>299.142135</ele>
        <time>2011-05-28T16:08:32Z</time>
      </trkpt>
      <trkpt lat="43.73151" lon="7.16453">
        <ele>297.988933</ele>
        <time>2011-05-28T16:08:34Z</time>
      </trkpt>
      <trkpt lat="43.73147" lon="7.16465">
        <ele>297.008563</ele>
        <time>2011-05-28T16:08:36Z</time>
      </trkpt>
      <trkpt lat="43.7314" lon="7.16483">
        <ele>296.286171</ele>
        <time>2011-05-28T16:08:39Z</time>
      </trkpt>
      <trkpt lat="43.73135" lon="7.16505">
        <ele>295.864662</ele>
        <time>2011-05-28T16:08:42Z</time>
      </trkpt>
      <trkpt lat="43.73128" lon="7.16529">
        <ele>295.716389</ele>
        <time>2011-05-28T16:08:45Z</time>
      </trkpt>
      <trkpt lat="43.73121" lon="7.16556">
        <ele>295.72499</ele>
        <time>2011-05-28T16:08:48Z</time>
      </trkpt>
      <trkpt lat="43.73113" lon="7.16583">
        <ele>295.748656</ele>
        <time>2011-05-28T16:08:51Z</time>
      </trkpt>
      <trkpt lat="43.73108" lon="7.166">
        <ele>295.71139</ele>
        <time>2011-05-28T16:08:53Z</time>
      </trkpt>
      <trkpt lat="43.73101" lon="7.16626">
        <ele>295.640077</ele>
        <time>2011-05-28T16:08:56Z</time>
      </trkpt>
      <trkpt lat="43.73096" lon="7.16642">
        <ele>295.576428</ele>
        <time>2011-05-28T16:08:58Z</time>
      </trkpt>
      <trkpt lat="43.73089" lon="7.16665">
        <ele>295.469708</ele>
        <time>2011-05-28T16:09:01Z</time>
      </trkpt>
      <trkpt lat="43.73084" lon="7.1668">
        <ele>295.199424</ele>
        <time>2011-05-28T16:09:03Z</time>
      </trkpt>
      <trkpt lat="43.73077" lon="7.16701">
        <ele>294.739075</ele>
        <time>2011-05-28T16:09:06Z</time>
      </trkpt>
      <trkpt lat="43.73069" lon="7.16722">
        <ele>294.178715</ele>
        <time>2011-05-28T16:09:09Z</time>
      </trkpt>
      <trkpt lat="43.73064" lon="7.16735">
        <ele>293.613686</ele>
        <time>2011-05-28T16:09:11Z</time>
      </trkpt>
      <trkpt lat="43.73055" lon="7.16754">
        <ele>293.072616</ele>
        <time>2011-05-28T16:09:14Z</time>
      </trkpt>
      <trkpt lat="43.73045" lon="7.16772">
        <ele>292.515523</ele>
        <time>2011-05-28T16:09:17Z</time>
      </trkpt>
      <trkpt lat="43.73034" lon="7.16789">
        <ele>291.938074</ele>
        <time>2011-05-28T16:09:20Z</time>
      </trkpt>
      <trkpt lat="43.73027" lon="7.168">
        <ele>291.416754</ele>
        <time>2011-05-28T16:09:22Z</time>
      </trkpt>
      <trkpt lat="43.73015" lon="7.16814">
        <ele>290.985692</ele>
        <time>2011-05-28T16:09:25Z</time>
      </trkpt>
      <trkpt lat="43.73007" lon="7.16824">
        <ele>290.633083</ele>
        <time>2011-05-28T16:09:27Z</time>
      </trkpt>
      <trkpt lat="43.72995" lon="7.16838">
        <ele>290.364701</ele>
        <time>2011-05-28T16:09:30Z</time>
      </trkpt>
      <trkpt lat="43.72984" lon="7.1685">
        <ele>290.183081</ele>
        <time>2011-05-28T16:09:33Z</time>
      </trkpt>
      <trkpt lat="43.72975" lon="7.16859">
        <ele>290.056788</ele>
        <time>2011-05-28T16:09:36Z</time>
      </trkpt>
      <trkpt lat="43.72965" lon="7.16867">
        <ele>289.924387</ele>
        <time>2011-05-28T16:09:39Z</time>
      </trkpt>
      <trkpt lat="43.72955" lon="7.16874">
        <ele>289.689422</ele>
        <time>2011-05-28T16:09:42Z</time>
      </trkpt>
      <trkpt lat="43.72946" lon="7.16881">
        <ele>289.342694</ele>
        <time>2011-05-28T16:09:45Z</time>
      </trkpt>
      <trkpt lat="43.72936" lon="7.16888">
        <ele>289.022371</ele>
        <time>2011-05-28T16:09:48Z</time>
      </trkpt>
      <trkpt lat="43.72926" lon="7.16895">
        <ele>288.816068</ele>
        <time>2011-05-28T16:09:51Z</time>
      </trkpt>
      <trkpt lat="43.72917" lon="7.16903">
        <ele>288.678712</ele>
        <time>2011-05-28T16:09:54Z</time>
      </trkpt>
      <trkpt lat="43.72907" lon="7.1691">
        <ele>288.553708</ele>
        <time>2011-05-28T16:09:58Z</time>
      </trkpt>
      <trkpt lat="43.72901" lon="7.16922">
        <ele>288.409188</ele>
        <time>2011-05-28T16:10:03Z</time>
      </trkpt>
      <trkpt lat="43.72907" lon="7.16932">
        <ele>288.239996</ele>
        <time>2011-05-28T16:10:11Z</time>
      </trkpt>
      <trkpt lat="43.72917" lon="7.16935">
        <ele>288.053941</ele>
        <time>2011-05-28T16:10:16Z</time>
      </trkpt>
      <trkpt lat="43.72928" lon="7.16938">
        <ele>287.849715</ele>
        <time>2011-05-28T16:10:20Z</time>
      </trkpt>
      <trkpt lat="43.72939" lon="7.16942">
        <ele>287.562034</ele>
        <time>2011-05-28T16:10:24Z</time>
      </trkpt>
      <trkpt lat="43.7295" lon="7.16946">
        <ele>287.148739</ele>
        <time>2011-05-28T16:10:28Z</time>
      </trkpt>
      <trkpt lat="43.7296" lon="7.1695">
        <ele>286.713606</ele>
        <time>2011-05-28T16:10:32Z</time>
      </trkpt>
      <trkpt lat="43.72969" lon="7.16959">
        <ele>286.399666</ele>
        <time>2011-05-28T16:10:36Z</time>
      </trkpt>
      <trkpt lat="43.7297" lon="7.16974">
        <ele>286.244184</ele>
        <time>2011-05-28T16:10:40Z</time>
      </trkpt>
      <trkpt lat="43.72966" lon="7.1699">
        <ele>286.207367</ele>
        <time>2011-05-28T16:10:44Z</time>
      </trkpt>
      <trkpt lat="43.72962" lon="7.17004">
        <ele>286.223982</ele>
        <time>2011-05-28T16:10:47Z</time>
      </trkpt>
      <trkpt lat="43.72958" lon="7.17018">
        <ele>286.262261</ele>
        <time>2011-05-28T16:10:50Z</time>
      </trkpt>
      <trkpt lat="43.72953" lon="7.17033">
        <ele>286.337063</ele>
        <time>2011-05-28T16:10:53Z</time>
      </trkpt>
      <trkpt lat="43.72946" lon="7.1705">
        <ele>286.4596</ele>
        <time>2011-05-28T16:10:56Z</time>
      </trkpt>
      <trkpt lat="43.7294" lon="7.17063">
        <ele>286.612971</ele>
        <time>2011-05-28T16:10:58Z</time>
      </trkpt>
      <trkpt lat="43.72931" lon="7.17083">
        <ele>286.844425</ele>
        <time>2011-05-28T16:11:01Z</time>
      </trkpt>
      <trkpt lat="43.72925" lon="7.17096">
        <ele>287.322982</ele>
        <time>2011-05-28T16:11:04Z</time>
      </trkpt>
      <trkpt lat="43.72921" lon="7.17109">
        <ele>288.081367</ele>
        <time>2011-05-28T16:11:08Z</time>
      </trkpt>
      <trkpt lat="43.72921" lon="7.17124">
        <ele>288.844723</ele>
        <time>2011-05-28T16:11:12Z</time>
      </trkpt>
      <trkpt lat="43.72923" lon="7.17137">
        <ele>289.326283</ele>
        <time>2011-05-28T16:11:15Z</time>
      </trkpt>
      <trkpt lat="43.7293" lon="7.17149">
        <ele>289.495642</ele>
        <time>2011-05-28T16:11:19Z</time>
      </trkpt>
      <trkpt lat="43.72936" lon="7.17159">
        <ele>289.485787</ele>
        <time>2011-05-28T16:11:22Z</time>
      </trkpt>
      <trkpt lat="43.72938" lon="7.17171">
        <ele>289.430122</ele>
        <time>2011-05-28T16:11:25Z</time>
      </trkpt>
      <trkpt lat="43.72937" lon="7.17185">
        <ele>289.391072</ele>
        <time>2011-05-28T16:11:28Z</time>
      </trkpt>
      <trkpt lat="43.72935" lon="7.172">
        <ele>289.377568</ele>
        <time>2011-05-28T16:11:32Z</time>
      </trkpt>
      <trkpt lat="43.72931" lon="7.17214">
        <ele>289.380454</ele>
        <time>2011-05-28T16:11:38Z</time>
      </trkpt>
      <trkpt lat="43.72924" lon="7.17228">
        <ele>289.39402</ele>
        <time>2011-05-28T16:11:42Z</time>
      </trkpt>
      <trkpt lat="43.72921" lon="7.17244">
        <ele>289.412727</ele>
        <time>2011-05-28T16:11:45Z</time>
      </trkpt>
      <trkpt lat="43.72925" lon="7.17261">
        <ele>289.426931</ele>
        <time>2011-05-28T16:11:48Z</time>
      </trkpt>
      <trkpt lat="43.72932" lon="7.17274">
        <ele>289.432282</ele>
        <time>2011-05-28T16:11:51Z</time>
      </trkpt>
      <trkpt lat="43.7294" lon="7.17285">
        <ele>289.431077</ele>
        <time>2011-05-28T16:11:54Z</time>
      </trkpt>
      <trkpt lat="43.72948" lon="7.17291">
        <ele>289.381184</ele>
        <time>2011-05-28T16:11:57Z</time>
      </trkpt>
      <trkpt lat="43.72957" lon="7.17296">
        <ele>289.192146</ele>
        <time>2011-05-28T16:12:00Z</time>
      </trkpt>
      <trkpt lat="43.72969" lon="7.17295">
        <ele>288.817324</ele>
        <time>2011-05-28T16:12:04Z</time>
      </trkpt>
      <trkpt lat="43.72979" lon="7.17291">
        <ele>288.287424</ele>
        <time>2011-05-28T16:12:07Z</time>
      </trkpt>
      <trkpt lat="43.7299" lon="7.17287">
        <ele>287.64062</ele>
        <time>2011-05-28T16:12:10Z</time>
      </trkpt>
      <trkpt lat="43.73002" lon="7.17282">
        <ele>286.859313</ele>
        <time>2011-05-28T16:12:13Z</time>
      </trkpt>
      <trkpt lat="43.73014" lon="7.17278">
        <ele>285.952184</ele>
        <time>2011-05-28T16:12:16Z</time>
      </trkpt>
      <trkpt lat="43.73025" lon="7.17275">
        <ele>285.029894</ele>
        <time>2011-05-28T16:12:19Z</time>
      </trkpt>
      <trkpt lat="43.73035" lon="7.17273">
        <ele>283.681546</ele>
        <time>2011-05-28T16:12:22Z</time>
      </trkpt>
      <trkpt lat="43.73045" lon="7.17271">
        <ele>281.639631</ele>
        <time>2011-05-28T16:12:25Z</time>
      </trkpt>
      <trkpt lat="43.73055" lon="7.1727">
        <ele>279.719929</ele>
        <time>2011-05-28T16:12:28Z</time>
      </trkpt>
      <trkpt lat="43.73066" lon="7.17268">
        <ele>278.653759</ele>
        <time>2011-05-28T16:12:31Z</time>
      </trkpt>
      <trkpt lat="43.73076" lon="7.17266">
        <ele>278.205271</ele>
        <time>2011-05-28T16:12:34Z</time>
      </trkpt>
      <trkpt lat="43.73085" lon="7.17265">
        <ele>277.979028</ele>
        <time>2011-05-28T16:12:37Z</time>
      </trkpt>
      <trkpt lat="43.73096" lon="7.17263">
        <ele>277.738727</ele>
        <time>2011-05-28T16:12:40Z</time>
      </trkpt>
      <trkpt lat="43.73107" lon="7.17261">
        <ele>277.426276</ele>
        <time>2011-05-28T16:12:43Z</time>
      </trkpt>
      <trkpt lat="43.73118" lon="7.1726">
        <ele>277.092758</ele>
        <time>2011-05-28T16:12:46Z</time>
      </trkpt>
      <trkpt lat="43.73128" lon="7.1726">
        <ele>276.771316</ele>
        <time>2011-05-28T16:12:49Z</time>
      </trkpt>
      <trkpt lat="43.73138" lon="7.17261">
        <ele>276.402894</ele>
        <time>2011-05-28T16:12:52Z</time>
      </trkpt>
      <trkpt lat="43.73149" lon="7.17262">
        <ele>275.923232</ele>
        <time>2011-05-28T16:12:56Z</time>
      </trkpt>
      <trkpt lat="43.73161" lon="7.17261">
        <ele>275.344429</ele>
        <time>2011-05-28T16:13:00Z</time>
      </trkpt>
      <trkpt lat="43.7317" lon="7.17262">
        <ele>274.716301</ele>
        <time>2011-05-28T16:13:03Z</time>
      </trkpt>
      <trkpt lat="43.7318" lon="7.17263">
        <ele>274.061558</ele>
        <time>2011-05-28T16:13:06Z</time>
      </trkpt>
      <trkpt lat="43.73191" lon="7.17262">
        <ele>273.402136</ele>
        <time>2011-05-28T16:13:10Z</time>
      </trkpt>
      <trkpt lat="43.73202" lon="7.1726">
        <ele>272.791029</ele>
        <time>2011-05-28T16:13:14Z</time>
      </trkpt>
      <trkpt lat="43.73211" lon="7.1726">
        <ele>272.254374</ele>
        <time>2011-05-28T16:13:17Z</time>
      </trkpt>
      <trkpt lat="43.73221" lon="7.17261">
        <ele>271.75398</ele>
        <time>2011-05-28T16:13:20Z</time>
      </trkpt>
      <trkpt lat="43.73231" lon="7.17262">
        <ele>271.24716</ele>
        <time>2011-05-28T16:13:23Z</time>
      </trkpt>
      <trkpt lat="43.7324" lon="7.17263">
        <ele>270.748794</ele>
        <time>2011-05-28T16:13:26Z</time>
      </trkpt>
      <trkpt lat="43.73252" lon="7.17264">
        <ele>270.313089</ele>
        <time>2011-05-28T16:13:30Z</time>
      </trkpt>
      <trkpt lat="43.73263" lon="7.17264">
        <ele>269.95491</ele>
        <time>2011-05-28T16:13:33Z</time>
      </trkpt>
      <trkpt lat="43.73274" lon="7.17265">
        <ele>269.650085</ele>
        <time>2011-05-28T16:13:36Z</time>
      </trkpt>
      <trkpt lat="43.73286" lon="7.17266">
        <ele>269.363775</ele>
        <time>2011-05-28T16:13:39Z</time>
      </trkpt>
      <trkpt lat="43.73295" lon="7.17266">
        <ele>268.929578</ele>
        <time>2011-05-28T16:13:42Z</time>
      </trkpt>
      <trkpt lat="43.73307" lon="7.17267">
        <ele>268.294845</ele>
        <time>2011-05-28T16:13:45Z</time>
      </trkpt>
      <trkpt lat="43.7332" lon="7.17268">
        <ele>267.70273</ele>
        <time>2011-05-28T16:13:48Z</time>
      </trkpt>
      <trkpt lat="43.73332" lon="7.17269">
        <ele>267.344931</ele>
        <time>2011-05-28T16:13:51Z</time>
      </trkpt>
      <trkpt lat="43.73343" lon="7.17271">
        <ele>267.164294</ele>
        <time>2011-05-28T16:13:54Z</time>
      </trkpt>
      <trkpt lat="43.73355" lon="7.17271">
        <ele>266.761717</ele>
        <time>2011-05-28T16:13:57Z</time>
      </trkpt>
      <trkpt lat="43.7337" lon="7.17267">
        <ele>265.859273</ele>
        <time>2011-05-28T16:14:00Z</time>
      </trkpt>
      <trkpt lat="43.73386" lon="7.1726">
        <ele>264.706246</ele>
        <time>2011-05-28T16:14:03Z</time>
      </trkpt>
      <trkpt lat="43.73396" lon="7.17255">
        <ele>263.269326</ele>
        <time>2011-05-28T16:14:05Z</time>
      </trkpt>
      <trkpt lat="43.73406" lon="7.17249">
        <ele>261.215805</ele>
        <time>2011-05-28T16:14:07Z</time>
      </trkpt>
      <trkpt lat="43.73421" lon="7.17242">
        <ele>258.914087</ele>
        <time>2011-05-28T16:14:10Z</time>
      </trkpt>
      <trkpt lat="43.73431" lon="7.17234">
        <ele>257.055992</ele>
        <time>2011-05-28T16:14:13Z</time>
      </trkpt>
      <trkpt lat="43.73441" lon="7.17225">
        <ele>255.83521</ele>
        <time>2011-05-28T16:14:16Z</time>
      </trkpt>
      <trkpt lat="43.73449" lon="7.17215">
        <ele>254.977729</ele>
        <time>2011-05-28T16:14:19Z</time>
      </trkpt>
      <trkpt lat="43.73455" lon="7.17205">
        <ele>254.287735</ele>
        <time>2011-05-28T16:14:22Z</time>
      </trkpt>
      <trkpt lat="43.7347" lon="7.17192">
        <ele>253.746137</ele>
        <time>2011-05-28T16:14:25Z</time>
      </trkpt>
      <trkpt lat="43.73484" lon="7.17175">
        <ele>253.328749</ele>
        <time>2011-05-28T16:14:28Z</time>
      </trkpt>
      <trkpt lat="43.73501" lon="7.17158">
        <ele>253.026912</ele>
        <time>2011-05-28T16:14:31Z</time>
      </trkpt>
      <trkpt lat="43.73513" lon="7.17139">
        <ele>252.635959</ele>
        <time>2011-05-28T16:14:34Z</time>
      </trkpt>
      <trkpt lat="43.73519" lon="7.17124">
        <ele>251.838006</ele>
        <time>2011-05-28T16:14:36Z</time>
      </trkpt>
      <trkpt lat="43.73529" lon="7.17104">
        <ele>250.785351</ele>
        <time>2011-05-28T16:14:39Z</time>
      </trkpt>
      <trkpt lat="43.73537" lon="7.17086">
        <ele>249.920513</ele>
        <time>2011-05-28T16:14:42Z</time>
      </trkpt>
      <trkpt lat="43.73542" lon="7.1707">
        <ele>249.441401</ele>
        <time>2011-05-28T16:14:45Z</time>
      </trkpt>
      <trkpt lat="43.73546" lon="7.17056">
        <ele>249.250475</ele>
        <time>2011-05-28T16:14:48Z</time>
      </trkpt>
      <trkpt lat="43.73551" lon="7.1704">
        <ele>249.070307</ele>
        <time>2011-05-28T16:14:51Z</time>
      </trkpt>
      <trkpt lat="43.73556" lon="7.17026">
        <ele>248.749511</ele>
        <time>2011-05-28T16:14:54Z</time>
      </trkpt>
      <trkpt lat="43.73563" lon="7.17012">
        <ele>248.416722</ele>
        <time>2011-05-28T16:14:57Z</time>
      </trkpt>
      <trkpt lat="43.73568" lon="7.16995">
        <ele>248.230346</ele>
        <time>2011-05-28T16:15:00Z</time>
      </trkpt>
      <trkpt lat="43.73573" lon="7.16978">
        <ele>248.185017</ele>
        <time>2011-05-28T16:15:03Z</time>
      </trkpt>
      <trkpt lat="43.73578" lon="7.16963">
        <ele>248.271782</ele>
        <time>2011-05-28T16:15:06Z</time>
      </trkpt>
      <trkpt lat="43.73583" lon="7.16948">
        <ele>248.522418</ele>
        <time>2011-05-28T16:15:09Z</time>
      </trkpt>
      <trkpt lat="43.73587" lon="7.16935">
        <ele>248.840926</ele>
        <time>2011-05-28T16:15:12Z</time>
      </trkpt>
      <trkpt lat="43.73592" lon="7.16922">
        <ele>249.055989</ele>
        <time>2011-05-28T16:15:15Z</time>
      </trkpt>
      <trkpt lat="43.73596" lon="7.1691">
        <ele>249.126958</ele>
        <time>2011-05-28T16:15:18Z</time>
      </trkpt>
      <trkpt lat="43.736" lon="7.16896">
        <ele>249.109131</ele>
        <time>2011-05-28T16:15:21Z</time>
      </trkpt>
      <trkpt lat="43.73605" lon="7.1688">
        <ele>249.047204</ele>
        <time>2011-05-28T16:15:24Z</time>
      </trkpt>
      <trkpt lat="43.73609" lon="7.16864">
        <ele>248.976709</ele>
        <time>2011-05-28T16:15:27Z</time>
      </trkpt>
      <trkpt lat="43.73612" lon="7.16851">
        <ele>248.929411</ele>
        <time>2011-05-28T16:15:30Z</time>
      </trkpt>
      <trkpt lat="43.73615" lon="7.16838">
        <ele>248.875227</ele>
        <time>2011-05-28T16:15:35Z</time>
      </trkpt>
      <trkpt lat="43.73618" lon="7.16826">
        <ele>248.779278</ele>
        <time>2011-05-28T16:15:39Z</time>
      </trkpt>
      <trkpt lat="43.73621" lon="7.16813">
        <ele>248.685874</ele>
        <time>2011-05-28T16:15:42Z</time>
      </trkpt>
      <trkpt lat="43.73625" lon="7.16799">
        <ele>248.642976</ele>
        <time>2011-05-28T16:15:45Z</time>
      </trkpt>
      <trkpt lat="43.73629" lon="7.16781">
        <ele>248.638549</ele>
        <time>2011-05-28T16:15:48Z</time>
      </trkpt>
      <trkpt lat="43.73632" lon="7.16765">
        <ele>248.649701</ele>
        <time>2011-05-28T16:15:51Z</time>
      </trkpt>
      <trkpt lat="43.73634" lon="7.16753">
        <ele>248.660567</ele>
        <time>2011-05-28T16:15:54Z</time>
      </trkpt>
      <trkpt lat="43.73636" lon="7.1674">
        <ele>248.66556</ele>
        <time>2011-05-28T16:15:57Z</time>
      </trkpt>
      <trkpt lat="43.73641" lon="7.16726">
        <ele>248.64088</ele>
        <time>2011-05-28T16:16:00Z</time>
      </trkpt>
      <trkpt lat="43.73644" lon="7.16712">
        <ele>248.558087</ele>
        <time>2011-05-28T16:16:03Z</time>
      </trkpt>
      <trkpt lat="43.73648" lon="7.16697">
        <ele>248.448126</ele>
        <time>2011-05-28T16:16:06Z</time>
      </trkpt>
      <trkpt lat="43.73653" lon="7.16683">
        <ele>248.37316</ele>
        <time>2011-05-28T16:16:09Z</time>
      </trkpt>
      <trkpt lat="43.73658" lon="7.16667">
        <ele>248.348119</ele>
        <time>2011-05-28T16:16:12Z</time>
      </trkpt>
      <trkpt lat="43.73664" lon="7.1665">
        <ele>248.403578</ele>
        <time>2011-05-28T16:16:15Z</time>
      </trkpt>
      <trkpt lat="43.7367" lon="7.16635">
        <ele>248.550474</ele>
        <time>2011-05-28T16:16:18Z</time>
      </trkpt>
      <trkpt lat="43.73672" lon="7.16621">
        <ele>248.698063</ele>
        <time>2011-05-28T16:16:21Z</time>
      </trkpt>
      <trkpt lat="43.73672" lon="7.16621">
        <ele>248.767192</ele>
        <time>2011-05-28T16:16:24Z</time>
      </trkpt>
      <trkpt lat="43.73678" lon="7.16597">
        <ele>248.765492</ele>
        <time>2011-05-28T16:16:36Z</time>
      </trkpt>
      <trkpt lat="43.73689" lon="7.16589">
        <ele>248.687988</ele>
        <time>2011-05-28T16:16:39Z</time>
      </trkpt>
      <trkpt lat="43.73698" lon="7.16579">
        <ele>248.524608</ele>
        <time>2011-05-28T16:16:42Z</time>
      </trkpt>
      <trkpt lat="43.73704" lon="7.1657">
        <ele>248.325493</ele>
        <time>2011-05-28T16:16:44Z</time>
      </trkpt>
      <trkpt lat="43.73716" lon="7.16557">
        <ele>248.173468</ele>
        <time>2011-05-28T16:16:47Z</time>
      </trkpt>
      <trkpt lat="43.73725" lon="7.16544">
        <ele>248.08461</ele>
        <time>2011-05-28T16:16:50Z</time>
      </trkpt>
      <trkpt lat="43.73733" lon="7.16533">
        <ele>247.975845</ele>
        <time>2011-05-28T16:16:52Z</time>
      </trkpt>
      <trkpt lat="43.73741" lon="7.16516">
        <ele>247.744843</ele>
        <time>2011-05-28T16:16:55Z</time>
      </trkpt>
      <trkpt lat="43.73748" lon="7.16499">
        <ele>247.412945</ele>
        <time>2011-05-28T16:16:58Z</time>
      </trkpt>
      <trkpt lat="43.73755" lon="7.16485">
        <ele>247.07775</ele>
        <time>2011-05-28T16:17:01Z</time>
      </trkpt>
      <trkpt lat="43.73762" lon="7.16471">
        <ele>246.808476</ele>
        <time>2011-05-28T16:17:04Z</time>
      </trkpt>
      <trkpt lat="43.73768" lon="7.16458">
        <ele>246.652458</ele>
        <time>2011-05-28T16:17:07Z</time>
      </trkpt>
      <trkpt lat="43.73772" lon="7.16443">
        <ele>246.61186</ele>
        <time>2011-05-28T16:17:10Z</time>
      </trkpt>
      <trkpt lat="43.73775" lon="7.16426">
        <ele>246.630225</ele>
        <time>2011-05-28T16:17:13Z</time>
      </trkpt>
      <trkpt lat="43.7378" lon="7.1641">
        <ele>246.67254</ele>
        <time>2011-05-28T16:17:16Z</time>
      </trkpt>
      <trkpt lat="43.73787" lon="7.16396">
        <ele>246.738498</ele>
        <time>2011-05-28T16:17:19Z</time>
      </trkpt>
      <trkpt lat="43.73787" lon="7.16396">
        <ele>246.819562</ele>
        <time>2011-05-28T16:17:22Z</time>
      </trkpt>
      <trkpt lat="43.73816" lon="7.16371">
        <ele>246.915015</ele>
        <time>2011-05-28T16:17:39Z</time>
      </trkpt>
      <trkpt lat="43.73826" lon="7.16374">
        <ele>247.095886</ele>
        <time>2011-05-28T16:17:45Z</time>
      </trkpt>
      <trkpt lat="43.73832" lon="7.16386">
        <ele>247.438903</ele>
        <time>2011-05-28T16:17:50Z</time>
      </trkpt>
      <trkpt lat="43.73835" lon="7.16401">
        <ele>248.235221</ele>
        <time>2011-05-28T16:17:53Z</time>
      </trkpt>
      <trkpt lat="43.73836" lon="7.16418">
        <ele>249.60021</ele>
        <time>2011-05-28T16:17:56Z</time>
      </trkpt>
      <trkpt lat="43.73837" lon="7.16438">
        <ele>250.999288</ele>
        <time>2011-05-28T16:17:59Z</time>
      </trkpt>
      <trkpt lat="43.73838" lon="7.16459">
        <ele>252.037581</ele>
        <time>2011-05-28T16:18:02Z</time>
      </trkpt>
      <trkpt lat="43.73838" lon="7.16472">
        <ele>252.987291</ele>
        <time>2011-05-28T16:18:04Z</time>
      </trkpt>
      <trkpt lat="43.73837" lon="7.16491">
        <ele>254.00793</ele>
        <time>2011-05-28T16:18:07Z</time>
      </trkpt>
      <trkpt lat="43.73835" lon="7.1651">
        <ele>254.913277</ele>
        <time>2011-05-28T16:18:10Z</time>
      </trkpt>
      <trkpt lat="43.73832" lon="7.16525">
        <ele>255.500176</ele>
        <time>2011-05-28T16:18:12Z</time>
      </trkpt>
      <trkpt lat="43.7383" lon="7.1654">
        <ele>255.744277</ele>
        <time>2011-05-28T16:18:14Z</time>
      </trkpt>
      <trkpt lat="43.73827" lon="7.16552">
        <ele>255.760612</ele>
        <time>2011-05-28T16:18:16Z</time>
      </trkpt>
      <trkpt lat="43.73818" lon="7.16569">
        <ele>255.630798</ele>
        <time>2011-05-28T16:18:19Z</time>
      </trkpt>
      <trkpt lat="43.73809" lon="7.16585">
        <ele>255.213618</ele>
        <time>2011-05-28T16:18:22Z</time>
      </trkpt>
      <trkpt lat="43.73806" lon="7.16597">
        <ele>254.348966</ele>
        <time>2011-05-28T16:18:24Z</time>
      </trkpt>
      <trkpt lat="43.73801" lon="7.16617">
        <ele>252.998083</ele>
        <time>2011-05-28T16:18:27Z</time>
      </trkpt>
      <trkpt lat="43.73799" lon="7.16631">
        <ele>251.152043</ele>
        <time>2011-05-28T16:18:29Z</time>
      </trkpt>
      <trkpt lat="43.73796" lon="7.16647">
        <ele>249.079117</ele>
        <time>2011-05-28T16:18:32Z</time>
      </trkpt>
      <trkpt lat="43.73792" lon="7.16664">
        <ele>247.222335</ele>
        <time>2011-05-28T16:18:35Z</time>
      </trkpt>
      <trkpt lat="43.73794" lon="7.16681">
        <ele>245.748677</ele>
        <time>2011-05-28T16:18:38Z</time>
      </trkpt>
      <trkpt lat="43.738" lon="7.16691">
        <ele>244.619558</ele>
        <time>2011-05-28T16:18:41Z</time>
      </trkpt>
      <trkpt lat="43.73811" lon="7.16695">
        <ele>243.845918</ele>
        <time>2011-05-28T16:18:45Z</time>
      </trkpt>
      <trkpt lat="43.7382" lon="7.16697">
        <ele>243.424511</ele>
        <time>2011-05-28T16:18:48Z</time>
      </trkpt>
      <trkpt lat="43.73829" lon="7.16701">
        <ele>243.26286</ele>
        <time>2011-05-28T16:18:51Z</time>
      </trkpt>
      <trkpt lat="43.73836" lon="7.16712">
        <ele>243.191829</ele>
        <time>2011-05-28T16:18:54Z</time>
      </trkpt>
      <trkpt lat="43.73843" lon="7.1672">
        <ele>243.110378</ele>
        <time>2011-05-28T16:18:57Z</time>
      </trkpt>
      <trkpt lat="43.7385" lon="7.1673">
        <ele>242.985471</ele>
        <time>2011-05-28T16:19:00Z</time>
      </trkpt>
      <trkpt lat="43.73859" lon="7.1674">
        <ele>242.832155</ele>
        <time>2011-05-28T16:19:04Z</time>
      </trkpt>
      <trkpt lat="43.73868" lon="7.16751">
        <ele>242.701664</ele>
        <time>2011-05-28T16:19:07Z</time>
      </trkpt>
      <trkpt lat="43.73877" lon="7.16762">
        <ele>242.628242</ele>
        <time>2011-05-28T16:19:10Z</time>
      </trkpt>
      <trkpt lat="43.73883" lon="7.16776">
        <ele>242.59417</ele>
        <time>2011-05-28T16:19:13Z</time>
      </trkpt>
      <trkpt lat="43.73888" lon="7.16793">
        <ele>242.551861</ele>
        <time>2011-05-28T16:19:16Z</time>
      </trkpt>
      <trkpt lat="43.73892" lon="7.1681">
        <ele>242.472837</ele>
        <time>2011-05-28T16:19:19Z</time>
      </trkpt>
      <trkpt lat="43.73895" lon="7.16825">
        <ele>242.379692</ele>
        <time>2011-05-28T16:19:22Z</time>
      </trkpt>
      <trkpt lat="43.73894" lon="7.1684">
        <ele>242.089801</ele>
        <time>2011-05-28T16:19:25Z</time>
      </trkpt>
      <trkpt lat="43.73891" lon="7.16857">
        <ele>241.223339</ele>
        <time>2011-05-28T16:19:28Z</time>
      </trkpt>
      <trkpt lat="43.73888" lon="7.16873">
        <ele>239.919617</ele>
        <time>2011-05-28T16:19:31Z</time>
      </trkpt>
      <trkpt lat="43.73888" lon="7.1689">
        <ele>238.828849</ele>
        <time>2011-05-28T16:19:35Z</time>
      </trkpt>
      <trkpt lat="43.73892" lon="7.16906">
        <ele>238.132998</ele>
        <time>2011-05-28T16:19:38Z</time>
      </trkpt>
      <trkpt lat="43.73897" lon="7.1692">
        <ele>237.489797</ele>
        <time>2011-05-28T16:19:41Z</time>
      </trkpt>
      <trkpt lat="43.739" lon="7.16935">
        <ele>236.798504</ele>
        <time>2011-05-28T16:19:44Z</time>
      </trkpt>
      <trkpt lat="43.73901" lon="7.16953">
        <ele>236.254159</ele>
        <time>2011-05-28T16:19:47Z</time>
      </trkpt>
      <trkpt lat="43.73902" lon="7.1697">
        <ele>235.941257</ele>
        <time>2011-05-28T16:19:50Z</time>
      </trkpt>
      <trkpt lat="43.73901" lon="7.16983">
        <ele>235.779815</ele>
        <time>2011-05-28T16:19:52Z</time>
      </trkpt>
      <trkpt lat="43.73896" lon="7.17004">
        <ele>235.6637</ele>
        <time>2011-05-28T16:19:55Z</time>
      </trkpt>
      <trkpt lat="43.73894" lon="7.17021">
        <ele>235.507806</ele>
        <time>2011-05-28T16:19:58Z</time>
      </trkpt>
      <trkpt lat="43.73897" lon="7.17034">
        <ele>235.288644</ele>
        <time>2011-05-28T16:20:01Z</time>
      </trkpt>
      <trkpt lat="43.73897" lon="7.17034">
        <ele>235.073958</ele>
        <time>2011-05-28T16:20:04Z</time>
      </trkpt>
      <trkpt lat="43.73897" lon="7.17034">
        <ele>234.925351</ele>
        <time>2011-05-28T16:20:33Z</time>
      </trkpt>
      <trkpt lat="43.73912" lon="7.17032">
        <ele>234.677474</ele>
        <time>2011-05-28T16:21:28Z</time>
      </trkpt>
      <trkpt lat="43.73918" lon="7.17021">
        <ele>234.089361</ele>
        <time>2011-05-28T16:21:32Z</time>
      </trkpt>
      <trkpt lat="43.73925" lon="7.17012">
        <ele>233.272312</ele>
        <time>2011-05-28T16:21:35Z</time>
      </trkpt>
      <trkpt lat="43.73932" lon="7.17004">
        <ele>232.367988</ele>
        <time>2011-05-28T16:21:39Z</time>
      </trkpt>
      <trkpt lat="43.73939" lon="7.16995">
        <ele>231.377972</ele>
        <time>2011-05-28T16:21:46Z</time>
      </trkpt>
      <trkpt lat="43.73939" lon="7.16995">
        <ele>230.55733</ele>
        <time>2011-05-28T16:21:55Z</time>
      </trkpt>
      <trkpt lat="43.73944" lon="7.17011">
        <ele>230.123048</ele>
        <time>2011-05-28T16:22:05Z</time>
      </trkpt>
      <trkpt lat="43.73943" lon="7.17026">
        <ele>229.883848</ele>
        <time>2011-05-28T16:22:08Z</time>
      </trkpt>
      <trkpt lat="43.73942" lon="7.1704">
        <ele>229.576577</ele>
        <time>2011-05-28T16:22:12Z</time>
      </trkpt>
      <trkpt lat="43.73942" lon="7.1704">
        <ele>229.178224</ele>
        <time>2011-05-28T16:22:13Z</time>
      </trkpt>
      <trkpt lat="43.7394" lon="7.1706">
        <ele>228.581415</ele>
        <time>2011-05-28T16:22:20Z</time>
      </trkpt>
      <trkpt lat="43.73937" lon="7.17074">
        <ele>227.474354</ele>
        <time>2011-05-28T16:22:23Z</time>
      </trkpt>
      <trkpt lat="43.73934" lon="7.17087">
        <ele>225.879261</ele>
        <time>2011-05-28T16:22:26Z</time>
      </trkpt>
      <trkpt lat="43.73926" lon="7.17099">
        <ele>224.28765</ele>
        <time>2011-05-28T16:22:29Z</time>
      </trkpt>
      <trkpt lat="43.73917" lon="7.17111">
        <ele>223.115706</ele>
        <time>2011-05-28T16:22:32Z</time>
      </trkpt>
      <trkpt lat="43.7391" lon="7.17125">
        <ele>222.432968</ele>
        <time>2011-05-28T16:22:35Z</time>
      </trkpt>
      <trkpt lat="43.73903" lon="7.17137">
        <ele>222.031904</ele>
        <time>2011-05-28T16:22:38Z</time>
      </trkpt>
      <trkpt lat="43.73898" lon="7.17149">
        <ele>221.338801</ele>
        <time>2011-05-28T16:22:41Z</time>
      </trkpt>
      <trkpt lat="43.73891" lon="7.17158">
        <ele>219.998537</ele>
        <time>2011-05-28T16:22:44Z</time>
      </trkpt>
      <trkpt lat="43.73882" lon="7.17169">
        <ele>218.579622</ele>
        <time>2011-05-28T16:22:47Z</time>
      </trkpt>
      <trkpt lat="43.73876" lon="7.17183">
        <ele>217.757106</ele>
        <time>2011-05-28T16:22:50Z</time>
      </trkpt>
      <trkpt lat="43.73869" lon="7.17193">
        <ele>217.472206</ele>
        <time>2011-05-28T16:22:53Z</time>
      </trkpt>
      <trkpt lat="43.73864" lon="7.17203">
        <ele>217.424968</ele>
        <time>2011-05-28T16:22:56Z</time>
      </trkpt>
      <trkpt lat="43.73856" lon="7.17216">
        <ele>217.426209</ele>
        <time>2011-05-28T16:23:00Z</time>
      </trkpt>
      <trkpt lat="43.7385" lon="7.17228">
        <ele>217.405883</ele>
        <time>2011-05-28T16:23:03Z</time>
      </trkpt>
      <trkpt lat="43.73843" lon="7.17237">
        <ele>217.344555</ele>
        <time>2011-05-28T16:23:06Z</time>
      </trkpt>
      <trkpt lat="43.73837" lon="7.17247">
        <ele>217.252258</ele>
        <time>2011-05-28T16:23:09Z</time>
      </trkpt>
      <trkpt lat="43.73831" lon="7.1726">
        <ele>217.155735</ele>
        <time>2011-05-28T16:23:14Z</time>
      </trkpt>
      <trkpt lat="43.73825" lon="7.1727">
        <ele>217.080318</ele>
        <time>2011-05-28T16:23:19Z</time>
      </trkpt>
      <trkpt lat="43.73818" lon="7.17281">
        <ele>217.026473</ele>
        <time>2011-05-28T16:23:23Z</time>
      </trkpt>
      <trkpt lat="43.73813" lon="7.17293">
        <ele>216.945202</ele>
        <time>2011-05-28T16:23:29Z</time>
      </trkpt>
      <trkpt lat="43.73813" lon="7.17293">
        <ele>216.819084</ele>
        <time>2011-05-28T16:23:34Z</time>
      </trkpt>
      <trkpt lat="43.73813" lon="7.17293">
        <ele>216.694609</ele>
        <time>2011-05-28T16:24:02Z</time>
      </trkpt>
      <trkpt lat="43.73802" lon="7.17341">
        <ele>216.566067</ele>
        <time>2011-05-28T16:24:27Z</time>
      </trkpt>
      <trkpt lat="43.73803" lon="7.17354">
        <ele>216.372629</ele>
        <time>2011-05-28T16:24:44Z</time>
      </trkpt>
      <trkpt lat="43.73806" lon="7.17367">
        <ele>216.086128</ele>
        <time>2011-05-28T16:24:52Z</time>
      </trkpt>
      <trkpt lat="43.73806" lon="7.17367">
        <ele>215.768923</ele>
        <time>2011-05-28T16:24:58Z</time>
      </trkpt>
      <trkpt lat="43.73813" lon="7.17333">
        <ele>215.267248</ele>
        <time>2011-05-28T16:25:29Z</time>
      </trkpt>
      <trkpt lat="43.73815" lon="7.17317">
        <ele>214.097213</ele>
        <time>2011-05-28T16:25:44Z</time>
      </trkpt>
      <trkpt lat="43.7382" lon="7.17306">
        <ele>212.293342</ele>
        <time>2011-05-28T16:25:56Z</time>
      </trkpt>
      <trkpt lat="43.73828" lon="7.17299">
        <ele>209.773905</ele>
        <time>2011-05-28T16:26:03Z</time>
      </trkpt>
      <trkpt lat="43.73831" lon="7.17287">
        <ele>206.494683</ele>
        <time>2011-05-28T16:26:11Z</time>
      </trkpt>
      <trkpt lat="43.73835" lon="7.17275">
        <ele>203.636825</ele>
        <time>2011-05-28T16:26:16Z</time>
      </trkpt>
      <trkpt lat="43.73838" lon="7.17262">
        <ele>202.259528</ele>
        <time>2011-05-28T16:26:21Z</time>
      </trkpt>
      <trkpt lat="43.73843" lon="7.1725">
        <ele>201.991491</ele>
        <time>2011-05-28T16:26:26Z</time>
      </trkpt>
      <trkpt lat="43.7385" lon="7.17241">
        <ele>202.18236</ele>
        <time>2011-05-28T16:26:31Z</time>
      </trkpt>
      <trkpt lat="43.73858" lon="7.17232">
        <ele>202.4899</ele>
        <time>2011-05-28T16:26:36Z</time>
      </trkpt>
      <trkpt lat="43.73865" lon="7.17224">
        <ele>202.911341</ele>
        <time>2011-05-28T16:26:41Z</time>
      </trkpt>
      <trkpt lat="43.73871" lon="7.17211">
        <ele>203.450271</ele>
        <time>2011-05-28T16:26:46Z</time>
      </trkpt>
      <trkpt lat="43.73879" lon="7.17198">
        <ele>204.014128</ele>
        <time>2011-05-28T16:26:50Z</time>
      </trkpt>
      <trkpt lat="43.73886" lon="7.17188">
        <ele>204.55536</ele>
        <time>2011-05-28T16:26:54Z</time>
      </trkpt>
      <trkpt lat="43.73891" lon="7.17178">
        <ele>205.087982</ele>
        <time>2011-05-28T16:26:58Z</time>
      </trkpt>
      <trkpt lat="43.73898" lon="7.17167">
        <ele>205.625078</ele>
        <time>2011-05-28T16:27:01Z</time>
      </trkpt>
      <trkpt lat="43.73903" lon="7.17153">
        <ele>206.150433</ele>
        <time>2011-05-28T16:27:04Z</time>
      </trkpt>
      <trkpt lat="43.7391" lon="7.17142">
        <ele>206.635184</ele>
        <time>2011-05-28T16:27:07Z</time>
      </trkpt>
      <trkpt lat="43.73918" lon="7.17131">
        <ele>207.061965</ele>
        <time>2011-05-28T16:27:11Z</time>
      </trkpt>
      <trkpt lat="43.73924" lon="7.17121">
        <ele>207.436327</ele>
        <time>2011-05-28T16:27:14Z</time>
      </trkpt>
      <trkpt lat="43.7393" lon="7.17107">
        <ele>207.784318</ele>
        <time>2011-05-28T16:27:17Z</time>
      </trkpt>
      <trkpt lat="43.73935" lon="7.17094">
        <ele>208.159987</ele>
        <time>2011-05-28T16:27:20Z</time>
      </trkpt>
      <trkpt lat="43.73939" lon="7.17082">
        <ele>208.596695</ele>
        <time>2011-05-28T16:27:23Z</time>
      </trkpt>
      <trkpt lat="43.73942" lon="7.17068">
        <ele>209.045661</ele>
        <time>2011-05-28T16:27:26Z</time>
      </trkpt>
      <trkpt lat="43.73946" lon="7.17054">
        <ele>209.433505</ele>
        <time>2011-05-28T16:27:29Z</time>
      </trkpt>
      <trkpt lat="43.73949" lon="7.17042">
        <ele>209.747118</ele>
        <time>2011-05-28T16:27:32Z</time>
      </trkpt>
      <trkpt lat="43.73951" lon="7.17026">
        <ele>210.020703</ele>
        <time>2011-05-28T16:27:36Z</time>
      </trkpt>
      <trkpt lat="43.73949" lon="7.17013">
        <ele>210.281497</ele>
        <time>2011-05-28T16:27:41Z</time>
      </trkpt>
      <trkpt lat="43.73949" lon="7.17013">
        <ele>210.498715</ele>
        <time>2011-05-28T16:27:47Z</time>
      </trkpt>
      <trkpt lat="43.73965" lon="7.16969">
        <ele>210.654451</ele>
        <time>2011-05-28T16:28:17Z</time>
      </trkpt>
      <trkpt lat="43.73973" lon="7.16958">
        <ele>210.819788</ele>
        <time>2011-05-28T16:28:23Z</time>
      </trkpt>
      <trkpt lat="43.73981" lon="7.16947">
        <ele>211.053942</ele>
        <time>2011-05-28T16:28:28Z</time>
      </trkpt>
      <trkpt lat="43.73986" lon="7.16937">
        <ele>211.292599</ele>
        <time>2011-05-28T16:28:31Z</time>
      </trkpt>
      <trkpt lat="43.73992" lon="7.16924">
        <ele>211.43973</ele>
        <time>2011-05-28T16:28:35Z</time>
      </trkpt>
      <trkpt lat="43.73996" lon="7.16912">
        <ele>211.468988</ele>
        <time>2011-05-28T16:28:40Z</time>
      </trkpt>
      <trkpt lat="43.74002" lon="7.169">
        <ele>211.42428</ele>
        <time>2011-05-28T16:28:44Z</time>
      </trkpt>
      <trkpt lat="43.74009" lon="7.16891">
        <ele>211.368946</ele>
        <time>2011-05-28T16:28:47Z</time>
      </trkpt>
      <trkpt lat="43.74016" lon="7.16881">
        <ele>211.340074</ele>
        <time>2011-05-28T16:28:51Z</time>
      </trkpt>
      <trkpt lat="43.74022" lon="7.1687">
        <ele>211.334129</ele>
        <time>2011-05-28T16:28:56Z</time>
      </trkpt>
      <trkpt lat="43.74025" lon="7.16856">
        <ele>211.371911</ele>
        <time>2011-05-28T16:29:00Z</time>
      </trkpt>
      <trkpt lat="43.74028" lon="7.16844">
        <ele>211.535819</ele>
        <time>2011-05-28T16:29:04Z</time>
      </trkpt>
      <trkpt lat="43.74032" lon="7.16831">
        <ele>211.895399</ele>
        <time>2011-05-28T16:29:09Z</time>
      </trkpt>
      <trkpt lat="43.74037" lon="7.16819">
        <ele>212.373631</ele>
        <time>2011-05-28T16:29:12Z</time>
      </trkpt>
      <trkpt lat="43.74043" lon="7.16805">
        <ele>212.822642</ele>
        <time>2011-05-28T16:29:16Z</time>
      </trkpt>
      <trkpt lat="43.74048" lon="7.16792">
        <ele>213.183205</ele>
        <time>2011-05-28T16:29:21Z</time>
      </trkpt>
      <trkpt lat="43.74053" lon="7.1678">
        <ele>213.438757</ele>
        <time>2011-05-28T16:29:26Z</time>
      </trkpt>
      <trkpt lat="43.74055" lon="7.16763">
        <ele>213.561454</ele>
        <time>2011-05-28T16:29:30Z</time>
      </trkpt>
      <trkpt lat="43.74059" lon="7.1675">
        <ele>213.580905</ele>
        <time>2011-05-28T16:29:33Z</time>
      </trkpt>
      <trkpt lat="43.74065" lon="7.16735">
        <ele>213.517126</ele>
        <time>2011-05-28T16:29:36Z</time>
      </trkpt>
      <trkpt lat="43.7407" lon="7.16721">
        <ele>213.338189</ele>
        <time>2011-05-28T16:29:40Z</time>
      </trkpt>
      <trkpt lat="43.74073" lon="7.16707">
        <ele>213.057329</ele>
        <time>2011-05-28T16:29:44Z</time>
      </trkpt>
      <trkpt lat="43.74076" lon="7.16694">
        <ele>212.740864</ele>
        <time>2011-05-28T16:29:47Z</time>
      </trkpt>
      <trkpt lat="43.74081" lon="7.16681">
        <ele>212.428365</ele>
        <time>2011-05-28T16:29:51Z</time>
      </trkpt>
      <trkpt lat="43.74087" lon="7.16669">
        <ele>212.124097</ele>
        <time>2011-05-28T16:29:56Z</time>
      </trkpt>
      <trkpt lat="43.74094" lon="7.16661">
        <ele>211.806505</ele>
        <time>2011-05-28T16:30:00Z</time>
      </trkpt>
      <trkpt lat="43.74102" lon="7.16654">
        <ele>211.433518</ele>
        <time>2011-05-28T16:30:04Z</time>
      </trkpt>
      <trkpt lat="43.74102" lon="7.16667">
        <ele>210.980694</ele>
        <time>2011-05-28T16:30:19Z</time>
      </trkpt>
      <trkpt lat="43.74102" lon="7.16667">
        <ele>210.539884</ele>
        <time>2011-05-28T16:30:29Z</time>
      </trkpt>
      <trkpt lat="43.74105" lon="7.16705">
        <ele>210.212875</ele>
        <time>2011-05-28T16:31:10Z</time>
      </trkpt>
      <trkpt lat="43.74104" lon="7.1672">
        <ele>209.92774</ele>
        <time>2011-05-28T16:31:14Z</time>
      </trkpt>
      <trkpt lat="43.74098" lon="7.16733">
        <ele>209.494928</ele>
        <time>2011-05-28T16:31:18Z</time>
      </trkpt>
      <trkpt lat="43.74094" lon="7.16748">
        <ele>208.635901</ele>
        <time>2011-05-28T16:31:21Z</time>
      </trkpt>
      <trkpt lat="43.74089" lon="7.16771">
        <ele>207.423654</ele>
        <time>2011-05-28T16:31:24Z</time>
      </trkpt>
      <trkpt lat="43.74085" lon="7.16786">
        <ele>206.456116</ele>
        <time>2011-05-28T16:31:26Z</time>
      </trkpt>
      <trkpt lat="43.74087" lon="7.16804">
        <ele>206.073956</ele>
        <time>2011-05-28T16:31:29Z</time>
      </trkpt>
      <trkpt lat="43.74093" lon="7.16819">
        <ele>206.32181</ele>
        <time>2011-05-28T16:31:32Z</time>
      </trkpt>
      <trkpt lat="43.74101" lon="7.1683">
        <ele>207.259073</ele>
        <time>2011-05-28T16:31:35Z</time>
      </trkpt>
      <trkpt lat="43.74109" lon="7.16846">
        <ele>208.499996</ele>
        <time>2011-05-28T16:31:38Z</time>
      </trkpt>
      <trkpt lat="43.74117" lon="7.16872">
        <ele>209.462689</ele>
        <time>2011-05-28T16:31:41Z</time>
      </trkpt>
      <trkpt lat="43.74121" lon="7.16892">
        <ele>210.004274</ele>
        <time>2011-05-28T16:31:43Z</time>
      </trkpt>
      <trkpt lat="43.7413" lon="7.16922">
        <ele>210.476688</ele>
        <time>2011-05-28T16:31:46Z</time>
      </trkpt>
      <trkpt lat="43.74142" lon="7.16947">
        <ele>211.479799</ele>
        <time>2011-05-28T16:31:49Z</time>
      </trkpt>
      <trkpt lat="43.74154" lon="7.16974">
        <ele>213.081334</ele>
        <time>2011-05-28T16:31:52Z</time>
      </trkpt>
      <trkpt lat="43.74158" lon="7.17002">
        <ele>214.60902</ele>
        <time>2011-05-28T16:31:55Z</time>
      </trkpt>
      <trkpt lat="43.74158" lon="7.17024">
        <ele>215.532014</ele>
        <time>2011-05-28T16:31:57Z</time>
      </trkpt>
      <trkpt lat="43.74154" lon="7.1706">
        <ele>216.071928</ele>
        <time>2011-05-28T16:32:00Z</time>
      </trkpt>
      <trkpt lat="43.74153" lon="7.17081">
        <ele>216.934276</ele>
        <time>2011-05-28T16:32:03Z</time>
      </trkpt>
      <trkpt lat="43.74154" lon="7.17096">
        <ele>218.594979</ele>
        <time>2011-05-28T16:32:07Z</time>
      </trkpt>
      <trkpt lat="43.74154" lon="7.17096">
        <ele>220.562505</ele>
        <time>2011-05-28T16:32:08Z</time>
      </trkpt>
      <trkpt lat="43.74178" lon="7.17076">
        <ele>221.903526</ele>
        <time>2011-05-28T16:32:35Z</time>
      </trkpt>
      <trkpt lat="43.74177" lon="7.17062">
        <ele>222.351336</ele>
        <time>2011-05-28T16:32:40Z</time>
      </trkpt>
      <trkpt lat="43.74179" lon="7.17045">
        <ele>221.796438</ele>
        <time>2011-05-28T16:32:46Z</time>
      </trkpt>
      <trkpt lat="43.74176" lon="7.17032">
        <ele>218.647592</ele>
        <time>2011-05-28T16:32:53Z</time>
      </trkpt>
      <trkpt lat="43.7417" lon="7.1702">
        <ele>212.505004</ele>
        <time>2011-05-28T16:32:58Z</time>
      </trkpt>
      <trkpt lat="43.74161" lon="7.17011">
        <ele>206.135148</ele>
        <time>2011-05-28T16:33:05Z</time>
      </trkpt>
      <trkpt lat="43.74153" lon="7.17002">
        <ele>201.779986</ele>
        <time>2011-05-28T16:33:11Z</time>
      </trkpt>
      <trkpt lat="43.74146" lon="7.16993">
        <ele>199.142951</ele>
        <time>2011-05-28T16:33:15Z</time>
      </trkpt>
      <trkpt lat="43.7414" lon="7.1698">
        <ele>197.397952</ele>
        <time>2011-05-28T16:33:19Z</time>
      </trkpt>
      <trkpt lat="43.74135" lon="7.16965">
        <ele>195.986145</ele>
        <time>2011-05-28T16:33:23Z</time>
      </trkpt>
      <trkpt lat="43.7413" lon="7.16953">
        <ele>194.8577</ele>
        <time>2011-05-28T16:33:27Z</time>
      </trkpt>
      <trkpt lat="43.74128" lon="7.16932">
        <ele>194.180953</ele>
        <time>2011-05-28T16:33:32Z</time>
      </trkpt>
      <trkpt lat="43.74127" lon="7.16918">
        <ele>193.874705</ele>
        <time>2011-05-28T16:33:36Z</time>
      </trkpt>
      <trkpt lat="43.74121" lon="7.16907">
        <ele>193.68851</ele>
        <time>2011-05-28T16:33:40Z</time>
      </trkpt>
      <trkpt lat="43.74116" lon="7.16897">
        <ele>193.431042</ele>
        <time>2011-05-28T16:33:46Z</time>
      </trkpt>
      <trkpt lat="43.74108" lon="7.16883">
        <ele>193.029479</ele>
        <time>2011-05-28T16:33:51Z</time>
      </trkpt>
      <trkpt lat="43.74103" lon="7.16871">
        <ele>192.519292</ele>
        <time>2011-05-28T16:33:54Z</time>
      </trkpt>
      <trkpt lat="43.74102" lon="7.16854">
        <ele>192.012913</ele>
        <time>2011-05-28T16:33:57Z</time>
      </trkpt>
      <trkpt lat="43.74104" lon="7.16837">
        <ele>191.628311</ele>
        <time>2011-05-28T16:34:00Z</time>
      </trkpt>
      <trkpt lat="43.74106" lon="7.16819">
        <ele>191.425565</ele>
        <time>2011-05-28T16:34:04Z</time>
      </trkpt>
      <trkpt lat="43.74107" lon="7.16806">
        <ele>191.373091</ele>
        <time>2011-05-28T16:34:08Z</time>
      </trkpt>
      <trkpt lat="43.74103" lon="7.16792">
        <ele>191.391399</ele>
        <time>2011-05-28T16:34:12Z</time>
      </trkpt>
      <trkpt lat="43.741" lon="7.16777">
        <ele>191.420117</ele>
        <time>2011-05-28T16:34:16Z</time>
      </trkpt>
      <trkpt lat="43.74095" lon="7.16763">
        <ele>191.436496</ele>
        <time>2011-05-28T16:34:20Z</time>
      </trkpt>
      <trkpt lat="43.74093" lon="7.16748">
        <ele>191.441374</ele>
        <time>2011-05-28T16:34:24Z</time>
      </trkpt>
      <trkpt lat="43.74095" lon="7.16734">
        <ele>191.44627</ele>
        <time>2011-05-28T16:34:27Z</time>
      </trkpt>
      <trkpt lat="43.74095" lon="7.16721">
        <ele>191.460994</ele>
        <time>2011-05-28T16:34:31Z</time>
      </trkpt>
      <trkpt lat="43.74095" lon="7.16721">
        <ele>191.473502</ele>
        <time>2011-05-28T16:34:33Z</time>
      </trkpt>
      <trkpt lat="43.74102" lon="7.16675">
        <ele>191.505557</ele>
        <time>2011-05-28T16:34:49Z</time>
      </trkpt>
      <trkpt lat="43.74102" lon="7.16675">
        <ele>191.588737</ele>
        <time>2011-05-28T16:34:52Z</time>
      </trkpt>
      <trkpt lat="43.74098" lon="7.16637">
        <ele>191.698218</ele>
        <time>2011-05-28T16:35:13Z</time>
      </trkpt>
      <trkpt lat="43.74098" lon="7.16637">
        <ele>191.790233</ele>
        <time>2011-05-28T16:35:16Z</time>
      </trkpt>
      <trkpt lat="43.74087" lon="7.16672">
        <ele>191.855793</ele>
        <time>2011-05-28T16:35:35Z</time>
      </trkpt>
      <trkpt lat="43.74086" lon="7.16685">
        <ele>191.904927</ele>
        <time>2011-05-28T16:35:41Z</time>
      </trkpt>
      <trkpt lat="43.74085" lon="7.16699">
        <ele>191.965804</ele>
        <time>2011-05-28T16:35:48Z</time>
      </trkpt>
      <trkpt lat="43.74079" lon="7.16709">
        <ele>192.355435</ele>
        <time>2011-05-28T16:35:52Z</time>
      </trkpt>
      <trkpt lat="43.74076" lon="7.16721">
        <ele>193.39641</ele>
        <time>2011-05-28T16:35:58Z</time>
      </trkpt>
      <trkpt lat="43.74074" lon="7.16735">
        <ele>194.816564</ele>
        <time>2011-05-28T16:36:05Z</time>
      </trkpt>
      <trkpt lat="43.74075" lon="7.16748">
        <ele>196.069973</ele>
        <time>2011-05-28T16:36:13Z</time>
      </trkpt>
      <trkpt lat="43.74076" lon="7.16762">
        <ele>196.976281</ele>
        <time>2011-05-28T16:36:21Z</time>
      </trkpt>
      <trkpt lat="43.7407" lon="7.16773">
        <ele>197.678514</ele>
        <time>2011-05-28T16:36:26Z</time>
      </trkpt>
      <trkpt lat="43.74063" lon="7.16782">
        <ele>198.426034</ele>
        <time>2011-05-28T16:36:30Z</time>
      </trkpt>
      <trkpt lat="43.74051" lon="7.1679">
        <ele>199.331998</ele>
        <time>2011-05-28T16:36:38Z</time>
      </trkpt>
      <trkpt lat="43.74051" lon="7.1679">
        <ele>200.209282</ele>
        <time>2011-05-28T16:36:55Z</time>
      </trkpt>
      <trkpt lat="43.74051" lon="7.1679">
        <ele>200.748877</ele>
        <time>2011-05-28T16:37:14Z</time>
      </trkpt>
      <trkpt lat="43.74041" lon="7.16827">
        <ele>200.962574</ele>
        <time>2011-05-28T16:37:55Z</time>
      </trkpt>
      <trkpt lat="43.74038" lon="7.16839">
        <ele>201.115315</ele>
        <time>2011-05-28T16:38:01Z</time>
      </trkpt>
      <trkpt lat="43.74033" lon="7.16853">
        <ele>201.298806</ele>
        <time>2011-05-28T16:38:07Z</time>
      </trkpt>
      <trkpt lat="43.74027" lon="7.16864">
        <ele>201.432242</ele>
        <time>2011-05-28T16:38:12Z</time>
      </trkpt>
      <trkpt lat="43.74021" lon="7.16874">
        <ele>201.480541</ele>
        <time>2011-05-28T16:38:19Z</time>
      </trkpt>
      <trkpt lat="43.74013" lon="7.16881">
        <ele>201.520609</ele>
        <time>2011-05-28T16:38:26Z</time>
      </trkpt>
      <trkpt lat="43.74005" lon="7.1689">
        <ele>201.654351</ele>
        <time>2011-05-28T16:38:34Z</time>
      </trkpt>
      <trkpt lat="43.73998" lon="7.169">
        <ele>201.925183</ele>
        <time>2011-05-28T16:38:42Z</time>
      </trkpt>
      <trkpt lat="43.73991" lon="7.16908">
        <ele>202.326033</ele>
        <time>2011-05-28T16:38:53Z</time>
      </trkpt>
      <trkpt lat="43.73983" lon="7.16916">
        <ele>202.823127</ele>
        <time>2011-05-28T16:39:01Z</time>
      </trkpt>
      <trkpt lat="43.73977" lon="7.16926">
        <ele>203.368512</ele>
        <time>2011-05-28T16:39:07Z</time>
      </trkpt>
      <trkpt lat="43.73976" lon="7.1694">
        <ele>203.956966</ele>
        <time>2011-05-28T16:39:14Z</time>
      </trkpt>
      <trkpt lat="43.73972" lon="7.16952">
        <ele>204.612338</ele>
        <time>2011-05-28T16:39:20Z</time>
      </trkpt>
      <trkpt lat="43.73967" lon="7.16965">
        <ele>205.320263</ele>
        <time>2011-05-28T16:39:26Z</time>
      </trkpt>
      <trkpt lat="43.73963" lon="7.16977">
        <ele>206.097018</ele>
        <time>2011-05-28T16:39:31Z</time>
      </trkpt>
      <trkpt lat="43.73961" lon="7.16989">
        <ele>206.997283</ele>
        <time>2011-05-28T16:39:37Z</time>
      </trkpt>
      <trkpt lat="43.73953" lon="7.17001">
        <ele>207.953304</ele>
        <time>2011-05-28T16:39:43Z</time>
      </trkpt>
      <trkpt lat="43.73946" lon="7.17009">
        <ele>208.819337</ele>
        <time>2011-05-28T16:39:47Z</time>
      </trkpt>
      <trkpt lat="43.73939" lon="7.17019">
        <ele>209.539281</ele>
        <time>2011-05-28T16:39:52Z</time>
      </trkpt>
      <trkpt lat="43.73931" lon="7.17028">
        <ele>210.156014</ele>
        <time>2011-05-28T16:39:58Z</time>
      </trkpt>
      <trkpt lat="43.73924" lon="7.1704">
        <ele>210.73811</ele>
        <time>2011-05-28T16:40:03Z</time>
      </trkpt>
      <trkpt lat="43.73915" lon="7.17045">
        <ele>211.316879</ele>
        <time>2011-05-28T16:40:06Z</time>
      </trkpt>
      <trkpt lat="43.73905" lon="7.17044">
        <ele>211.896372</ele>
        <time>2011-05-28T16:40:10Z</time>
      </trkpt>
      <trkpt lat="43.73896" lon="7.17037">
        <ele>212.437718</ele>
        <time>2011-05-28T16:40:16Z</time>
      </trkpt>
      <trkpt lat="43.73896" lon="7.17023">
        <ele>212.860445</ele>
        <time>2011-05-28T16:40:24Z</time>
      </trkpt>
      <trkpt lat="43.73899" lon="7.17009">
        <ele>213.175996</ele>
        <time>2011-05-28T16:40:32Z</time>
      </trkpt>
      <trkpt lat="43.739" lon="7.16995">
        <ele>213.471169</ele>
        <time>2011-05-28T16:40:38Z</time>
      </trkpt>
      <trkpt lat="43.739" lon="7.16981">
        <ele>213.782701</ele>
        <time>2011-05-28T16:40:43Z</time>
      </trkpt>
      <trkpt lat="43.73899" lon="7.16968">
        <ele>214.096194</ele>
        <time>2011-05-28T16:40:49Z</time>
      </trkpt>
      <trkpt lat="43.73898" lon="7.16955">
        <ele>214.402084</ele>
        <time>2011-05-28T16:40:56Z</time>
      </trkpt>
      <trkpt lat="43.73891" lon="7.16946">
        <ele>214.671323</ele>
        <time>2011-05-28T16:41:03Z</time>
      </trkpt>
      <trkpt lat="43.73889" lon="7.16933">
        <ele>214.882909</ele>
        <time>2011-05-28T16:41:08Z</time>
      </trkpt>
      <trkpt lat="43.73888" lon="7.16919">
        <ele>215.145086</ele>
        <time>2011-05-28T16:41:14Z</time>
      </trkpt>
      <trkpt lat="43.73888" lon="7.16905">
        <ele>215.589914</ele>
        <time>2011-05-28T16:41:20Z</time>
      </trkpt>
      <trkpt lat="43.73891" lon="7.16892">
        <ele>216.186001</ele>
        <time>2011-05-28T16:41:26Z</time>
      </trkpt>
      <trkpt lat="43.73891" lon="7.16878">
        <ele>216.866438</ele>
        <time>2011-05-28T16:41:33Z</time>
      </trkpt>
      <trkpt lat="43.73892" lon="7.16864">
        <ele>217.613166</ele>
        <time>2011-05-28T16:41:40Z</time>
      </trkpt>
      <trkpt lat="43.7389" lon="7.1685">
        <ele>218.370644</ele>
        <time>2011-05-28T16:41:45Z</time>
      </trkpt>
      <trkpt lat="43.73889" lon="7.16836">
        <ele>219.078566</ele>
        <time>2011-05-28T16:41:50Z</time>
      </trkpt>
      <trkpt lat="43.7389" lon="7.16822">
        <ele>219.722119</ele>
        <time>2011-05-28T16:41:56Z</time>
      </trkpt>
      <trkpt lat="43.73887" lon="7.16809">
        <ele>220.233174</ele>
        <time>2011-05-28T16:42:03Z</time>
      </trkpt>
      <trkpt lat="43.73883" lon="7.16797">
        <ele>220.527473</ele>
        <time>2011-05-28T16:42:08Z</time>
      </trkpt>
      <trkpt lat="43.73878" lon="7.16787">
        <ele>220.634931</ele>
        <time>2011-05-28T16:42:15Z</time>
      </trkpt>
      <trkpt lat="43.73871" lon="7.16777">
        <ele>220.738164</ele>
        <time>2011-05-28T16:42:21Z</time>
      </trkpt>
      <trkpt lat="43.73865" lon="7.16764">
        <ele>221.023427</ele>
        <time>2011-05-28T16:42:27Z</time>
      </trkpt>
      <trkpt lat="43.7386" lon="7.16752">
        <ele>221.538104</ele>
        <time>2011-05-28T16:42:32Z</time>
      </trkpt>
      <trkpt lat="43.73853" lon="7.16744">
        <ele>222.189636</ele>
        <time>2011-05-28T16:42:38Z</time>
      </trkpt>
      <trkpt lat="43.73846" lon="7.16735">
        <ele>222.889975</ele>
        <time>2011-05-28T16:42:44Z</time>
      </trkpt>
      <trkpt lat="43.73841" lon="7.16724">
        <ele>223.590167</ele>
        <time>2011-05-28T16:42:51Z</time>
      </trkpt>
      <trkpt lat="43.73838" lon="7.16713">
        <ele>224.273615</ele>
        <time>2011-05-28T16:42:59Z</time>
      </trkpt>
      <trkpt lat="43.73829" lon="7.16707">
        <ele>224.947121</ele>
        <time>2011-05-28T16:43:06Z</time>
      </trkpt>
      <trkpt lat="43.73818" lon="7.16709">
        <ele>225.647806</ele>
        <time>2011-05-28T16:43:13Z</time>
      </trkpt>
      <trkpt lat="43.73809" lon="7.16711">
        <ele>226.437123</ele>
        <time>2011-05-28T16:43:18Z</time>
      </trkpt>
      <trkpt lat="43.738" lon="7.16707">
        <ele>227.323632</ele>
        <time>2011-05-28T16:43:25Z</time>
      </trkpt>
      <trkpt lat="43.73794" lon="7.16697">
        <ele>228.218241</ele>
        <time>2011-05-28T16:43:32Z</time>
      </trkpt>
      <trkpt lat="43.73795" lon="7.16684">
        <ele>229.052685</ele>
        <time>2011-05-28T16:43:41Z</time>
      </trkpt>
      <trkpt lat="43.73796" lon="7.1667">
        <ele>229.897053</ele>
        <time>2011-05-28T16:43:52Z</time>
      </trkpt>
      <trkpt lat="43.73796" lon="7.1667">
        <ele>230.708914</ele>
        <time>2011-05-28T16:44:07Z</time>
      </trkpt>
      <trkpt lat="43.73774" lon="7.16641">
        <ele>231.400624</ele>
        <time>2011-05-28T16:45:12Z</time>
      </trkpt>
      <trkpt lat="43.73774" lon="7.16641">
        <ele>231.975848</ele>
        <time>2011-05-28T16:45:16Z</time>
      </trkpt>
      <trkpt lat="43.73774" lon="7.16641">
        <ele>232.365908</ele>
        <time>2011-05-28T16:45:17Z</time>
      </trkpt>
      <trkpt lat="43.73747" lon="7.16635">
        <ele>232.648039</ele>
        <time>2011-05-28T16:47:00Z</time>
      </trkpt>
      <trkpt lat="43.73739" lon="7.16628">
        <ele>233.15275</ele>
        <time>2011-05-28T16:47:09Z</time>
      </trkpt>
      <trkpt lat="43.7373" lon="7.16623">
        <ele>233.954698</ele>
        <time>2011-05-28T16:47:13Z</time>
      </trkpt>
      <trkpt lat="43.73721" lon="7.16621">
        <ele>235.424193</ele>
        <time>2011-05-28T16:47:17Z</time>
      </trkpt>
      <trkpt lat="43.73713" lon="7.16617">
        <ele>237.728851</ele>
        <time>2011-05-28T16:47:20Z</time>
      </trkpt>
      <trkpt lat="43.73704" lon="7.16615">
        <ele>239.898458</ele>
        <time>2011-05-28T16:47:24Z</time>
      </trkpt>
      <trkpt lat="43.73695" lon="7.16614">
        <ele>241.108421</ele>
        <time>2011-05-28T16:47:30Z</time>
      </trkpt>
      <trkpt lat="43.73687" lon="7.16623">
        <ele>241.672632</ele>
        <time>2011-05-28T16:47:39Z</time>
      </trkpt>
      <trkpt lat="43.73684" lon="7.16635">
        <ele>242.136422</ele>
        <time>2011-05-28T16:47:46Z</time>
      </trkpt>
      <trkpt lat="43.73674" lon="7.1664">
        <ele>242.772431</ele>
        <time>2011-05-28T16:47:50Z</time>
      </trkpt>
      <trkpt lat="43.73664" lon="7.16644">
        <ele>243.565613</ele>
        <time>2011-05-28T16:47:59Z</time>
      </trkpt>
      <trkpt lat="43.73664" lon="7.16644">
        <ele>244.3073</ele>
        <time>2011-05-28T16:48:15Z</time>
      </trkpt>
      <trkpt lat="43.73664" lon="7.16644">
        <ele>244.760815</ele>
        <time>2011-05-28T16:48:29Z</time>
      </trkpt>
      <trkpt lat="43.73658" lon="7.16679">
        <ele>244.989811</ele>
        <time>2011-05-28T16:48:44Z</time>
      </trkpt>
      <trkpt lat="43.7365" lon="7.1669">
        <ele>245.288092</ele>
        <time>2011-05-28T16:48:48Z</time>
      </trkpt>
      <trkpt lat="43.73643" lon="7.16703">
        <ele>245.752341</ele>
        <time>2011-05-28T16:48:52Z</time>
      </trkpt>
      <trkpt lat="43.73636" lon="7.16714">
        <ele>246.576022</ele>
        <time>2011-05-28T16:48:56Z</time>
      </trkpt>
      <trkpt lat="43.73632" lon="7.16726">
        <ele>247.854574</ele>
        <time>2011-05-28T16:49:01Z</time>
      </trkpt>
      <trkpt lat="43.7363" lon="7.1674">
        <ele>249.094215</ele>
        <time>2011-05-28T16:49:08Z</time>
      </trkpt>
      <trkpt lat="43.73627" lon="7.16755">
        <ele>249.862727</ele>
        <time>2011-05-28T16:49:14Z</time>
      </trkpt>
      <trkpt lat="43.73623" lon="7.16769">
        <ele>250.339945</ele>
        <time>2011-05-28T16:49:18Z</time>
      </trkpt>
      <trkpt lat="43.73619" lon="7.16781">
        <ele>250.845647</ele>
        <time>2011-05-28T16:49:22Z</time>
      </trkpt>
      <trkpt lat="43.73616" lon="7.16793">
        <ele>251.588804</ele>
        <time>2011-05-28T16:49:26Z</time>
      </trkpt>
      <trkpt lat="43.73615" lon="7.16807">
        <ele>252.627452</ele>
        <time>2011-05-28T16:49:31Z</time>
      </trkpt>
      <trkpt lat="43.73613" lon="7.16821">
        <ele>253.89177</ele>
        <time>2011-05-28T16:49:35Z</time>
      </trkpt>
      <trkpt lat="43.73611" lon="7.16836">
        <ele>255.239917</ele>
        <time>2011-05-28T16:49:39Z</time>
      </trkpt>
      <trkpt lat="43.73609" lon="7.16849">
        <ele>256.542078</ele>
        <time>2011-05-28T16:49:43Z</time>
      </trkpt>
      <trkpt lat="43.73612" lon="7.16863">
        <ele>257.71758</ele>
        <time>2011-05-28T16:49:47Z</time>
      </trkpt>
      <trkpt lat="43.73607" lon="7.16875">
        <ele>258.739979</ele>
        <time>2011-05-28T16:49:52Z</time>
      </trkpt>
      <trkpt lat="43.73601" lon="7.16885">
        <ele>259.631027</ele>
        <time>2011-05-28T16:49:55Z</time>
      </trkpt>
      <trkpt lat="43.73593" lon="7.16893">
        <ele>260.386038</ele>
        <time>2011-05-28T16:49:59Z</time>
      </trkpt>
      <trkpt lat="43.73587" lon="7.16903">
        <ele>260.953501</ele>
        <time>2011-05-28T16:50:05Z</time>
      </trkpt>
      <trkpt lat="43.73581" lon="7.16915">
        <ele>261.328153</ele>
        <time>2011-05-28T16:50:11Z</time>
      </trkpt>
      <trkpt lat="43.73576" lon="7.16929">
        <ele>261.562176</ele>
        <time>2011-05-28T16:50:15Z</time>
      </trkpt>
      <trkpt lat="43.73573" lon="7.16942">
        <ele>261.753551</ele>
        <time>2011-05-28T16:50:17Z</time>
      </trkpt>
      <trkpt lat="43.7357" lon="7.16955">
        <ele>262.036973</ele>
        <time>2011-05-28T16:50:19Z</time>
      </trkpt>
      <trkpt lat="43.73567" lon="7.16968">
        <ele>262.397134</ele>
        <time>2011-05-28T16:50:21Z</time>
      </trkpt>
      <trkpt lat="43.73565" lon="7.16986">
        <ele>262.681659</ele>
        <time>2011-05-28T16:50:24Z</time>
      </trkpt>
      <trkpt lat="43.73562" lon="7.17001">
        <ele>262.870447</ele>
        <time>2011-05-28T16:50:27Z</time>
      </trkpt>
      <trkpt lat="43.73559" lon="7.17019">
        <ele>263.097262</ele>
        <time>2011-05-28T16:50:30Z</time>
      </trkpt>
      <trkpt lat="43.73554" lon="7.17035">
        <ele>263.477733</ele>
        <time>2011-05-28T16:50:33Z</time>
      </trkpt>
      <trkpt lat="43.73547" lon="7.17049">
        <ele>264.047008</ele>
        <time>2011-05-28T16:50:36Z</time>
      </trkpt>
      <trkpt lat="43.73541" lon="7.17062">
        <ele>264.719637</ele>
        <time>2011-05-28T16:50:39Z</time>
      </trkpt>
      <trkpt lat="43.73538" lon="7.17074">
        <ele>265.361806</ele>
        <time>2011-05-28T16:50:42Z</time>
      </trkpt>
      <trkpt lat="43.73535" lon="7.17088">
        <ele>265.925795</ele>
        <time>2011-05-28T16:50:45Z</time>
      </trkpt>
      <trkpt lat="43.73532" lon="7.171">
        <ele>266.416967</ele>
        <time>2011-05-28T16:50:48Z</time>
      </trkpt>
      <trkpt lat="43.73533" lon="7.17114">
        <ele>266.820072</ele>
        <time>2011-05-28T16:50:52Z</time>
      </trkpt>
      <trkpt lat="43.73535" lon="7.1713">
        <ele>267.097485</ele>
        <time>2011-05-28T16:50:55Z</time>
      </trkpt>
      <trkpt lat="43.73534" lon="7.17144">
        <ele>267.227691</ele>
        <time>2011-05-28T16:50:58Z</time>
      </trkpt>
      <trkpt lat="43.73532" lon="7.17157">
        <ele>267.24656</ele>
        <time>2011-05-28T16:51:01Z</time>
      </trkpt>
      <trkpt lat="43.73524" lon="7.17167">
        <ele>267.223516</ele>
        <time>2011-05-28T16:51:05Z</time>
      </trkpt>
      <trkpt lat="43.73515" lon="7.17177">
        <ele>267.173602</ele>
        <time>2011-05-28T16:51:09Z</time>
      </trkpt>
      <trkpt lat="43.73505" lon="7.17186">
        <ele>267.061298</ele>
        <time>2011-05-28T16:51:13Z</time>
      </trkpt>
      <trkpt lat="43.73497" lon="7.17196">
        <ele>266.862645</ele>
        <time>2011-05-28T16:51:17Z</time>
      </trkpt>
      <trkpt lat="43.73489" lon="7.17204">
        <ele>266.577231</ele>
        <time>2011-05-28T16:51:20Z</time>
      </trkpt>
      <trkpt lat="43.7348" lon="7.17213">
        <ele>266.246874</ele>
        <time>2011-05-28T16:51:24Z</time>
      </trkpt>
      <trkpt lat="43.73474" lon="7.17223">
        <ele>265.952087</ele>
        <time>2011-05-28T16:51:27Z</time>
      </trkpt>
      <trkpt lat="43.73466" lon="7.17233">
        <ele>265.727882</ele>
        <time>2011-05-28T16:51:32Z</time>
      </trkpt>
      <trkpt lat="43.73458" lon="7.17241">
        <ele>265.530606</ele>
        <time>2011-05-28T16:51:36Z</time>
      </trkpt>
      <trkpt lat="43.73449" lon="7.17245">
        <ele>265.271897</ele>
        <time>2011-05-28T16:51:39Z</time>
      </trkpt>
      <trkpt lat="43.73437" lon="7.17252">
        <ele>264.810444</ele>
        <time>2011-05-28T16:51:42Z</time>
      </trkpt>
      <trkpt lat="43.73428" lon="7.17257">
        <ele>264.073232</ele>
        <time>2011-05-28T16:51:45Z</time>
      </trkpt>
      <trkpt lat="43.73419" lon="7.1726">
        <ele>263.171777</ele>
        <time>2011-05-28T16:51:49Z</time>
      </trkpt>
      <trkpt lat="43.73409" lon="7.17265">
        <ele>262.27168</ele>
        <time>2011-05-28T16:51:53Z</time>
      </trkpt>
      <trkpt lat="43.734" lon="7.17268">
        <ele>261.433904</ele>
        <time>2011-05-28T16:51:58Z</time>
      </trkpt>
      <trkpt lat="43.7339" lon="7.1727">
        <ele>260.600339</ele>
        <time>2011-05-28T16:52:05Z</time>
      </trkpt>
      <trkpt lat="43.7338" lon="7.17273">
        <ele>259.670514</ele>
        <time>2011-05-28T16:52:11Z</time>
      </trkpt>
      <trkpt lat="43.73369" lon="7.17272">
        <ele>258.628508</ele>
        <time>2011-05-28T16:52:18Z</time>
      </trkpt>
      <trkpt lat="43.73359" lon="7.17273">
        <ele>257.496146</ele>
        <time>2011-05-28T16:52:23Z</time>
      </trkpt>
      <trkpt lat="43.73359" lon="7.17273">
        <ele>256.444938</ele>
        <time>2011-05-28T16:52:40Z</time>
      </trkpt>
      <trkpt lat="43.73359" lon="7.17273">
        <ele>255.789433</ele>
        <time>2011-05-28T16:52:53Z</time>
      </trkpt>
      <trkpt lat="43.73327" lon="7.17266">
        <ele>255.467425</ele>
        <time>2011-05-28T16:54:14Z</time>
      </trkpt>
      <trkpt lat="43.73318" lon="7.17266">
        <ele>255.049124</ele>
        <time>2011-05-28T16:54:20Z</time>
      </trkpt>
      <trkpt lat="43.73307" lon="7.17268">
        <ele>254.420485</ele>
        <time>2011-05-28T16:54:26Z</time>
      </trkpt>
      <trkpt lat="43.73298" lon="7.17267">
        <ele>253.536067</ele>
        <time>2011-05-28T16:54:31Z</time>
      </trkpt>
      <trkpt lat="43.73288" lon="7.17267">
        <ele>252.410091</ele>
        <time>2011-05-28T16:54:37Z</time>
      </trkpt>
      <trkpt lat="43.73278" lon="7.17268">
        <ele>251.49487</ele>
        <time>2011-05-28T16:54:42Z</time>
      </trkpt>
      <trkpt lat="43.73269" lon="7.17267">
        <ele>251.127471</ele>
        <time>2011-05-28T16:54:46Z</time>
      </trkpt>
      <trkpt lat="43.73258" lon="7.17267">
        <ele>251.162931</ele>
        <time>2011-05-28T16:54:51Z</time>
      </trkpt>
      <trkpt lat="43.73248" lon="7.17265">
        <ele>251.44576</ele>
        <time>2011-05-28T16:54:56Z</time>
      </trkpt>
      <trkpt lat="43.73237" lon="7.17265">
        <ele>251.866604</ele>
        <time>2011-05-28T16:55:00Z</time>
      </trkpt>
      <trkpt lat="43.73227" lon="7.17264">
        <ele>252.348311</ele>
        <time>2011-05-28T16:55:05Z</time>
      </trkpt>
      <trkpt lat="43.73218" lon="7.17265">
        <ele>252.855114</ele>
        <time>2011-05-28T16:55:11Z</time>
      </trkpt>
      <trkpt lat="43.73209" lon="7.17266">
        <ele>253.34784</ele>
        <time>2011-05-28T16:55:17Z</time>
      </trkpt>
      <trkpt lat="43.73198" lon="7.17264">
        <ele>253.805232</ele>
        <time>2011-05-28T16:55:22Z</time>
      </trkpt>
      <trkpt lat="43.73188" lon="7.17265">
        <ele>254.265838</ele>
        <time>2011-05-28T16:55:28Z</time>
      </trkpt>
      <trkpt lat="43.73178" lon="7.17264">
        <ele>254.775264</ele>
        <time>2011-05-28T16:55:35Z</time>
      </trkpt>
      <trkpt lat="43.73169" lon="7.17263">
        <ele>255.345194</ele>
        <time>2011-05-28T16:55:41Z</time>
      </trkpt>
      <trkpt lat="43.73158" lon="7.17264">
        <ele>255.9893</ele>
        <time>2011-05-28T16:55:47Z</time>
      </trkpt>
      <trkpt lat="43.73147" lon="7.17262">
        <ele>256.72777</ele>
        <time>2011-05-28T16:55:53Z</time>
      </trkpt>
      <trkpt lat="43.73138" lon="7.17262">
        <ele>257.542609</ele>
        <time>2011-05-28T16:55:58Z</time>
      </trkpt>
      <trkpt lat="43.73129" lon="7.17264">
        <ele>258.402019</ele>
        <time>2011-05-28T16:56:03Z</time>
      </trkpt>
      <trkpt lat="43.73119" lon="7.17265">
        <ele>259.28341</ele>
        <time>2011-05-28T16:56:08Z</time>
      </trkpt>
      <trkpt lat="43.73109" lon="7.17266">
        <ele>260.136431</ele>
        <time>2011-05-28T16:56:13Z</time>
      </trkpt>
      <trkpt lat="43.73099" lon="7.17267">
        <ele>260.902669</ele>
        <time>2011-05-28T16:56:18Z</time>
      </trkpt>
      <trkpt lat="43.73088" lon="7.17267">
        <ele>261.572896</ele>
        <time>2011-05-28T16:56:24Z</time>
      </trkpt>
      <trkpt lat="43.73079" lon="7.17268">
        <ele>262.18544</ele>
        <time>2011-05-28T16:56:30Z</time>
      </trkpt>
      <trkpt lat="43.73069" lon="7.1727">
        <ele>262.793664</ele>
        <time>2011-05-28T16:56:38Z</time>
      </trkpt>
      <trkpt lat="43.7306" lon="7.17273">
        <ele>263.430701</ele>
        <time>2011-05-28T16:56:46Z</time>
      </trkpt>
      <trkpt lat="43.73051" lon="7.17274">
        <ele>264.073536</ele>
        <time>2011-05-28T16:56:53Z</time>
      </trkpt>
      <trkpt lat="43.73041" lon="7.17276">
        <ele>264.657591</ele>
        <time>2011-05-28T16:56:59Z</time>
      </trkpt>
      <trkpt lat="43.73032" lon="7.17278">
        <ele>265.139994</ele>
        <time>2011-05-28T16:57:05Z</time>
      </trkpt>
      <trkpt lat="43.73023" lon="7.17282">
        <ele>265.528305</ele>
        <time>2011-05-28T16:57:14Z</time>
      </trkpt>
      <trkpt lat="43.73015" lon="7.17288">
        <ele>265.838459</ele>
        <time>2011-05-28T16:57:25Z</time>
      </trkpt>
      <trkpt lat="43.73006" lon="7.17292">
        <ele>266.067931</ele>
        <time>2011-05-28T16:57:34Z</time>
      </trkpt>
      <trkpt lat="43.72997" lon="7.17296">
        <ele>266.225778</ele>
        <time>2011-05-28T16:57:48Z</time>
      </trkpt>
      <trkpt lat="43.72988" lon="7.17294">
        <ele>266.364076</ele>
        <time>2011-05-28T16:57:56Z</time>
      </trkpt>
      <trkpt lat="43.72979" lon="7.17295">
        <ele>266.55688</ele>
        <time>2011-05-28T16:57:59Z</time>
      </trkpt>
      <trkpt lat="43.72968" lon="7.17295">
        <ele>266.869052</ele>
        <time>2011-05-28T16:58:03Z</time>
      </trkpt>
      <trkpt lat="43.72957" lon="7.17297">
        <ele>267.308899</ele>
        <time>2011-05-28T16:58:06Z</time>
      </trkpt>
      <trkpt lat="43.72947" lon="7.17298">
        <ele>267.770801</ele>
        <time>2011-05-28T16:58:10Z</time>
      </trkpt>
      <trkpt lat="43.72939" lon="7.17294">
        <ele>268.118677</ele>
        <time>2011-05-28T16:58:15Z</time>
      </trkpt>
      <trkpt lat="43.7293" lon="7.17289">
        <ele>268.350652</ele>
        <time>2011-05-28T16:58:21Z</time>
      </trkpt>
      <trkpt lat="43.72928" lon="7.17275">
        <ele>268.594549</ele>
        <time>2011-05-28T16:58:29Z</time>
      </trkpt>
      <trkpt lat="43.7293" lon="7.17262">
        <ele>268.949691</ele>
        <time>2011-05-28T16:58:35Z</time>
      </trkpt>
      <trkpt lat="43.72933" lon="7.17249">
        <ele>269.403038</ele>
        <time>2011-05-28T16:58:41Z</time>
      </trkpt>
      <trkpt lat="43.72938" lon="7.17237">
        <ele>269.825078</ele>
        <time>2011-05-28T16:58:48Z</time>
      </trkpt>
      <trkpt lat="43.72938" lon="7.17224">
        <ele>270.074784</ele>
        <time>2011-05-28T16:58:51Z</time>
      </trkpt>
      <trkpt lat="43.72942" lon="7.17211">
        <ele>270.142307</ele>
        <time>2011-05-28T16:58:56Z</time>
      </trkpt>
      <trkpt lat="43.72938" lon="7.17199">
        <ele>270.116861</ele>
        <time>2011-05-28T16:59:04Z</time>
      </trkpt>
      <trkpt lat="43.72935" lon="7.17187">
        <ele>270.019091</ele>
        <time>2011-05-28T16:59:11Z</time>
      </trkpt>
      <trkpt lat="43.72931" lon="7.17175">
        <ele>269.775122</ele>
        <time>2011-05-28T16:59:17Z</time>
      </trkpt>
      <trkpt lat="43.72925" lon="7.17167">
        <ele>269.42132</ele>
        <time>2011-05-28T16:59:24Z</time>
      </trkpt>
      <trkpt lat="43.7292" lon="7.17152">
        <ele>269.144787</ele>
        <time>2011-05-28T16:59:29Z</time>
      </trkpt>
      <trkpt lat="43.72919" lon="7.17135">
        <ele>269.03765</ele>
        <time>2011-05-28T16:59:32Z</time>
      </trkpt>
      <trkpt lat="43.7292" lon="7.17119">
        <ele>269.094065</ele>
        <time>2011-05-28T16:59:35Z</time>
      </trkpt>
      <trkpt lat="43.72922" lon="7.17104">
        <ele>269.400618</ele>
        <time>2011-05-28T16:59:38Z</time>
      </trkpt>
      <trkpt lat="43.72926" lon="7.17092">
        <ele>269.934548</ele>
        <time>2011-05-28T16:59:41Z</time>
      </trkpt>
      <trkpt lat="43.7293" lon="7.17079">
        <ele>270.452938</ele>
        <time>2011-05-28T16:59:44Z</time>
      </trkpt>
      <trkpt lat="43.72936" lon="7.17067">
        <ele>270.780944</ele>
        <time>2011-05-28T16:59:47Z</time>
      </trkpt>
      <trkpt lat="43.72943" lon="7.17056">
        <ele>270.952918</ele>
        <time>2011-05-28T16:59:51Z</time>
      </trkpt>
      <trkpt lat="43.72948" lon="7.17044">
        <ele>271.078717</ele>
        <time>2011-05-28T16:59:55Z</time>
      </trkpt>
      <trkpt lat="43.7295" lon="7.17032">
        <ele>271.257119</ele>
        <time>2011-05-28T16:59:59Z</time>
      </trkpt>
      <trkpt lat="43.72954" lon="7.17019">
        <ele>271.518174</ele>
        <time>2011-05-28T17:00:03Z</time>
      </trkpt>
      <trkpt lat="43.72959" lon="7.17008">
        <ele>271.827318</ele>
        <time>2011-05-28T17:00:08Z</time>
      </trkpt>
      <trkpt lat="43.72964" lon="7.16995">
        <ele>272.120295</ele>
        <time>2011-05-28T17:00:14Z</time>
      </trkpt>
      <trkpt lat="43.72967" lon="7.16983">
        <ele>272.364053</ele>
        <time>2011-05-28T17:00:19Z</time>
      </trkpt>
      <trkpt lat="43.72973" lon="7.16972">
        <ele>272.592951</ele>
        <time>2011-05-28T17:00:23Z</time>
      </trkpt>
      <trkpt lat="43.72975" lon="7.1696">
        <ele>272.849312</ele>
        <time>2011-05-28T17:00:32Z</time>
      </trkpt>
      <trkpt lat="43.72966" lon="7.16956">
        <ele>273.125627</ele>
        <time>2011-05-28T17:00:40Z</time>
      </trkpt>
      <trkpt lat="43.72966" lon="7.16956">
        <ele>273.361819</ele>
        <time>2011-05-28T17:00:53Z</time>
      </trkpt>
      <trkpt lat="43.72966" lon="7.16956">
        <ele>273.495159</ele>
        <time>2011-05-28T17:01:28Z</time>
      </trkpt>
      <trkpt lat="43.72936" lon="7.1694">
        <ele>273.592474</ele>
        <time>2011-05-28T17:02:25Z</time>
      </trkpt>
      <trkpt lat="43.72927" lon="7.16936">
        <ele>273.97765</ele>
        <time>2011-05-28T17:02:31Z</time>
      </trkpt>
      <trkpt lat="43.72918" lon="7.16931">
        <ele>274.95516</ele>
        <time>2011-05-28T17:02:35Z</time>
      </trkpt>
      <trkpt lat="43.72908" lon="7.16928">
        <ele>277.087037</ele>
        <time>2011-05-28T17:02:38Z</time>
      </trkpt>
      <trkpt lat="43.72908" lon="7.16928">
        <ele>280.231059</ele>
        <time>2011-05-28T17:02:43Z</time>
      </trkpt>
      <trkpt lat="43.72908" lon="7.16928">
        <ele>282.84919</ele>
        <time>2011-05-28T17:03:39Z</time>
      </trkpt>
      <trkpt lat="43.72873" lon="7.16916">
        <ele>284.00729</ele>
        <time>2011-05-28T17:03:56Z</time>
      </trkpt>
      <trkpt lat="43.72862" lon="7.16921">
        <ele>284.32864</ele>
        <time>2011-05-28T17:04:01Z</time>
      </trkpt>
      <trkpt lat="43.72854" lon="7.16927">
        <ele>284.402775</ele>
        <time>2011-05-28T17:04:05Z</time>
      </trkpt>
      <trkpt lat="43.72844" lon="7.16934">
        <ele>284.418872</ele>
        <time>2011-05-28T17:04:09Z</time>
      </trkpt>
      <trkpt lat="43.72834" lon="7.16941">
        <ele>284.420708</ele>
        <time>2011-05-28T17:04:13Z</time>
      </trkpt>
      <trkpt lat="43.72826" lon="7.16949">
        <ele>284.424885</ele>
        <time>2011-05-28T17:04:17Z</time>
      </trkpt>
      <trkpt lat="43.72817" lon="7.16956">
        <ele>284.437662</ele>
        <time>2011-05-28T17:04:23Z</time>
      </trkpt>
      <trkpt lat="43.72809" lon="7.16963">
        <ele>284.459183</ele>
        <time>2011-05-28T17:04:30Z</time>
      </trkpt>
      <trkpt lat="43.72799" lon="7.16967">
        <ele>284.48399</ele>
        <time>2011-05-28T17:04:34Z</time>
      </trkpt>
      <trkpt lat="43.72788" lon="7.16961">
        <ele>284.518619</ele>
        <time>2011-05-28T17:04:38Z</time>
      </trkpt>
      <trkpt lat="43.72778" lon="7.16961">
        <ele>284.578234</ele>
        <time>2011-05-28T17:04:42Z</time>
      </trkpt>
      <trkpt lat="43.72768" lon="7.16962">
        <ele>284.649394</ele>
        <time>2011-05-28T17:04:46Z</time>
      </trkpt>
      <trkpt lat="43.72759" lon="7.16963">
        <ele>284.697042</ele>
        <time>2011-05-28T17:04:50Z</time>
      </trkpt>
      <trkpt lat="43.72748" lon="7.16964">
        <ele>284.712596</ele>
        <time>2011-05-28T17:04:55Z</time>
      </trkpt>
      <trkpt lat="43.72738" lon="7.16968">
        <ele>284.705564</ele>
        <time>2011-05-28T17:04:59Z</time>
      </trkpt>
      <trkpt lat="43.72728" lon="7.16971">
        <ele>284.686298</ele>
        <time>2011-05-28T17:05:03Z</time>
      </trkpt>
      <trkpt lat="43.72718" lon="7.16965">
        <ele>284.668661</ele>
        <time>2011-05-28T17:05:06Z</time>
      </trkpt>
      <trkpt lat="43.72703" lon="7.16959">
        <ele>284.653972</ele>
        <time>2011-05-28T17:05:09Z</time>
      </trkpt>
      <trkpt lat="43.72689" lon="7.16955">
        <ele>284.63514</ele>
        <time>2011-05-28T17:05:12Z</time>
      </trkpt>
      <trkpt lat="43.72677" lon="7.16954">
        <ele>284.618248</ele>
        <time>2011-05-28T17:05:15Z</time>
      </trkpt>
      <trkpt lat="43.72664" lon="7.16956">
        <ele>284.610912</ele>
        <time>2011-05-28T17:05:18Z</time>
      </trkpt>
      <trkpt lat="43.72652" lon="7.16957">
        <ele>284.594539</ele>
        <time>2011-05-28T17:05:21Z</time>
      </trkpt>
      <trkpt lat="43.72643" lon="7.16958">
        <ele>284.5347</ele>
        <time>2011-05-28T17:05:23Z</time>
      </trkpt>
      <trkpt lat="43.72634" lon="7.16958">
        <ele>284.421525</ele>
        <time>2011-05-28T17:05:25Z</time>
      </trkpt>
      <trkpt lat="43.72619" lon="7.16955">
        <ele>284.282541</ele>
        <time>2011-05-28T17:05:28Z</time>
      </trkpt>
      <trkpt lat="43.72602" lon="7.1695">
        <ele>284.163304</ele>
        <time>2011-05-28T17:05:31Z</time>
      </trkpt>
      <trkpt lat="43.72592" lon="7.16947">
        <ele>284.098163</ele>
        <time>2011-05-28T17:05:33Z</time>
      </trkpt>
      <trkpt lat="43.72581" lon="7.16943">
        <ele>284.083152</ele>
        <time>2011-05-28T17:05:35Z</time>
      </trkpt>
      <trkpt lat="43.72564" lon="7.16938">
        <ele>284.182929</ele>
        <time>2011-05-28T17:05:38Z</time>
      </trkpt>
      <trkpt lat="43.72554" lon="7.16934">
        <ele>284.459278</ele>
        <time>2011-05-28T17:05:40Z</time>
      </trkpt>
      <trkpt lat="43.7254" lon="7.16929">
        <ele>284.799239</ele>
        <time>2011-05-28T17:05:43Z</time>
      </trkpt>
      <trkpt lat="43.72525" lon="7.16927">
        <ele>285.081462</ele>
        <time>2011-05-28T17:05:46Z</time>
      </trkpt>
      <trkpt lat="43.72512" lon="7.16923">
        <ele>285.294463</ele>
        <time>2011-05-28T17:05:49Z</time>
      </trkpt>
      <trkpt lat="43.72498" lon="7.16922">
        <ele>285.415845</ele>
        <time>2011-05-28T17:05:52Z</time>
      </trkpt>
      <trkpt lat="43.72485" lon="7.1692">
        <ele>285.446432</ele>
        <time>2011-05-28T17:05:55Z</time>
      </trkpt>
      <trkpt lat="43.72476" lon="7.16918">
        <ele>285.435484</ele>
        <time>2011-05-28T17:05:57Z</time>
      </trkpt>
      <trkpt lat="43.7246" lon="7.16915">
        <ele>285.419717</ele>
        <time>2011-05-28T17:06:00Z</time>
      </trkpt>
      <trkpt lat="43.72444" lon="7.16914">
        <ele>285.411616</ele>
        <time>2011-05-28T17:06:03Z</time>
      </trkpt>
      <trkpt lat="43.72435" lon="7.16912">
        <ele>285.461425</ele>
        <time>2011-05-28T17:06:05Z</time>
      </trkpt>
      <trkpt lat="43.72425" lon="7.16909">
        <ele>285.650186</ele>
        <time>2011-05-28T17:06:07Z</time>
      </trkpt>
      <trkpt lat="43.72417" lon="7.16902">
        <ele>285.972884</ele>
        <time>2011-05-28T17:06:09Z</time>
      </trkpt>
      <trkpt lat="43.72405" lon="7.16892">
        <ele>286.343548</ele>
        <time>2011-05-28T17:06:12Z</time>
      </trkpt>
      <trkpt lat="43.72394" lon="7.16881">
        <ele>286.776065</ele>
        <time>2011-05-28T17:06:15Z</time>
      </trkpt>
      <trkpt lat="43.72383" lon="7.16876">
        <ele>287.449849</ele>
        <time>2011-05-28T17:06:18Z</time>
      </trkpt>
      <trkpt lat="43.72373" lon="7.16873">
        <ele>288.570876</ele>
        <time>2011-05-28T17:06:21Z</time>
      </trkpt>
      <trkpt lat="43.7236" lon="7.16868">
        <ele>290.204958</ele>
        <time>2011-05-28T17:06:24Z</time>
      </trkpt>
      <trkpt lat="43.72351" lon="7.16862">
        <ele>292.241884</ele>
        <time>2011-05-28T17:06:26Z</time>
      </trkpt>
      <trkpt lat="43.72342" lon="7.16856">
        <ele>294.497869</ele>
        <time>2011-05-28T17:06:28Z</time>
      </trkpt>
      <trkpt lat="43.72328" lon="7.16848">
        <ele>296.771901</ele>
        <time>2011-05-28T17:06:31Z</time>
      </trkpt>
      <trkpt lat="43.72313" lon="7.16839">
        <ele>298.696664</ele>
        <time>2011-05-28T17:06:34Z</time>
      </trkpt>
      <trkpt lat="43.72298" lon="7.16829">
        <ele>299.866512</ele>
        <time>2011-05-28T17:06:37Z</time>
      </trkpt>
      <trkpt lat="43.72288" lon="7.16821">
        <ele>300.259824</ele>
        <time>2011-05-28T17:06:39Z</time>
      </trkpt>
      <trkpt lat="43.72273" lon="7.1681">
        <ele>300.222265</ele>
        <time>2011-05-28T17:06:42Z</time>
      </trkpt>
      <trkpt lat="43.72262" lon="7.16802">
        <ele>299.974231</ele>
        <time>2011-05-28T17:06:44Z</time>
      </trkpt>
      <trkpt lat="43.72245" lon="7.16792">
        <ele>299.43686</ele>
        <time>2011-05-28T17:06:47Z</time>
      </trkpt>
      <trkpt lat="43.7223" lon="7.16782">
        <ele>298.446703</ele>
        <time>2011-05-28T17:06:50Z</time>
      </trkpt>
      <trkpt lat="43.72219" lon="7.16777">
        <ele>297.112472</ele>
        <time>2011-05-28T17:06:52Z</time>
      </trkpt>
      <trkpt lat="43.72209" lon="7.16769">
        <ele>295.769286</ele>
        <time>2011-05-28T17:06:54Z</time>
      </trkpt>
      <trkpt lat="43.72194" lon="7.1676">
        <ele>294.603653</ele>
        <time>2011-05-28T17:06:57Z</time>
      </trkpt>
      <trkpt lat="43.72185" lon="7.1675">
        <ele>293.628281</ele>
        <time>2011-05-28T17:06:59Z</time>
      </trkpt>
      <trkpt lat="43.72177" lon="7.16725">
        <ele>292.889342</ele>
        <time>2011-05-28T17:07:02Z</time>
      </trkpt>
      <trkpt lat="43.72176" lon="7.16704">
        <ele>292.331963</ele>
        <time>2011-05-28T17:07:04Z</time>
      </trkpt>
      <trkpt lat="43.72174" lon="7.16677">
        <ele>291.842594</ele>
        <time>2011-05-28T17:07:06Z</time>
      </trkpt>
      <trkpt lat="43.72174" lon="7.1664">
        <ele>291.451108</ele>
        <time>2011-05-28T17:07:09Z</time>
      </trkpt>
      <trkpt lat="43.72173" lon="7.16613">
        <ele>291.063462</ele>
        <time>2011-05-28T17:07:12Z</time>
      </trkpt>
      <trkpt lat="43.72171" lon="7.16593">
        <ele>290.067783</ele>
        <time>2011-05-28T17:07:15Z</time>
      </trkpt>
      <trkpt lat="43.72168" lon="7.16577">
        <ele>287.721685</ele>
        <time>2011-05-28T17:07:18Z</time>
      </trkpt>
      <trkpt lat="43.72161" lon="7.16563">
        <ele>284.08716</ele>
        <time>2011-05-28T17:07:21Z</time>
      </trkpt>
      <trkpt lat="43.7215" lon="7.16555">
        <ele>280.448733</ele>
        <time>2011-05-28T17:07:24Z</time>
      </trkpt>
      <trkpt lat="43.72138" lon="7.16549">
        <ele>278.169253</ele>
        <time>2011-05-28T17:07:27Z</time>
      </trkpt>
      <trkpt lat="43.72125" lon="7.16545">
        <ele>277.241877</ele>
        <time>2011-05-28T17:07:30Z</time>
      </trkpt>
      <trkpt lat="43.72114" lon="7.16542">
        <ele>276.876532</ele>
        <time>2011-05-28T17:07:33Z</time>
      </trkpt>
      <trkpt lat="43.72114" lon="7.16542">
        <ele>276.683948</ele>
        <time>2011-05-28T17:07:35Z</time>
      </trkpt>
      <trkpt lat="43.72098" lon="7.1653">
        <ele>276.590425</ele>
        <time>2011-05-28T17:07:41Z</time>
      </trkpt>
      <trkpt lat="43.72088" lon="7.16526">
        <ele>276.546471</ele>
        <time>2011-05-28T17:07:44Z</time>
      </trkpt>
      <trkpt lat="43.72076" lon="7.16522">
        <ele>276.572723</ele>
        <time>2011-05-28T17:07:47Z</time>
      </trkpt>
      <trkpt lat="43.72067" lon="7.16518">
        <ele>276.698374</ele>
        <time>2011-05-28T17:07:49Z</time>
      </trkpt>
      <trkpt lat="43.72049" lon="7.1651">
        <ele>276.89903</ele>
        <time>2011-05-28T17:07:52Z</time>
      </trkpt>
      <trkpt lat="43.72039" lon="7.16504">
        <ele>277.245423</ele>
        <time>2011-05-28T17:07:54Z</time>
      </trkpt>
      <trkpt lat="43.72023" lon="7.16499">
        <ele>277.767512</ele>
        <time>2011-05-28T17:07:57Z</time>
      </trkpt>
      <trkpt lat="43.72014" lon="7.16499">
        <ele>278.22265</ele>
        <time>2011-05-28T17:07:59Z</time>
      </trkpt>
      <trkpt lat="43.72001" lon="7.16503">
        <ele>278.416144</ele>
        <time>2011-05-28T17:08:02Z</time>
      </trkpt>
      <trkpt lat="43.71989" lon="7.1651">
        <ele>278.270498</ele>
        <time>2011-05-28T17:08:05Z</time>
      </trkpt>
      <trkpt lat="43.71975" lon="7.1652">
        <ele>277.624806</ele>
        <time>2011-05-28T17:08:08Z</time>
      </trkpt>
      <trkpt lat="43.71961" lon="7.16532">
        <ele>276.396181</ele>
        <time>2011-05-28T17:08:11Z</time>
      </trkpt>
      <trkpt lat="43.71948" lon="7.16543">
        <ele>274.723706</ele>
        <time>2011-05-28T17:08:13Z</time>
      </trkpt>
      <trkpt lat="43.71936" lon="7.16552">
        <ele>272.932362</ele>
        <time>2011-05-28T17:08:15Z</time>
      </trkpt>
      <trkpt lat="43.71914" lon="7.16565">
        <ele>271.33385</ele>
        <time>2011-05-28T17:08:18Z</time>
      </trkpt>
      <trkpt lat="43.71897" lon="7.16573">
        <ele>270.064241</ele>
        <time>2011-05-28T17:08:20Z</time>
      </trkpt>
      <trkpt lat="43.7188" lon="7.16579">
        <ele>269.226953</ele>
        <time>2011-05-28T17:08:22Z</time>
      </trkpt>
      <trkpt lat="43.71856" lon="7.16584">
        <ele>268.833466</ele>
        <time>2011-05-28T17:08:25Z</time>
      </trkpt>
      <trkpt lat="43.71845" lon="7.16585">
        <ele>268.696892</ele>
        <time>2011-05-28T17:08:27Z</time>
      </trkpt>
      <trkpt lat="43.71836" lon="7.16586">
        <ele>268.618552</ele>
        <time>2011-05-28T17:08:29Z</time>
      </trkpt>
      <trkpt lat="43.71836" lon="7.16586">
        <ele>268.554237</ele>
        <time>2011-05-28T17:08:33Z</time>
      </trkpt>
      <trkpt lat="43.71836" lon="7.16586">
        <ele>268.506529</ele>
        <time>2011-05-28T17:09:06Z</time>
      </trkpt>
      <trkpt lat="43.71814" lon="7.16566">
        <ele>268.448901</ele>
        <time>2011-05-28T17:09:12Z</time>
      </trkpt>
      <trkpt lat="43.7182" lon="7.16555">
        <ele>268.366301</ele>
        <time>2011-05-28T17:09:16Z</time>
      </trkpt>
      <trkpt lat="43.71828" lon="7.16543">
        <ele>268.280498</ele>
        <time>2011-05-28T17:09:19Z</time>
      </trkpt>
      <trkpt lat="43.71834" lon="7.16533">
        <ele>267.905456</ele>
        <time>2011-05-28T17:09:21Z</time>
      </trkpt>
      <trkpt lat="43.71841" lon="7.1652">
        <ele>266.915043</ele>
        <time>2011-05-28T17:09:24Z</time>
      </trkpt>
      <trkpt lat="43.71844" lon="7.16504">
        <ele>265.31813</ele>
        <time>2011-05-28T17:09:28Z</time>
      </trkpt>
      <trkpt lat="43.71846" lon="7.16486">
        <ele>263.1446</ele>
        <time>2011-05-28T17:09:31Z</time>
      </trkpt>
      <trkpt lat="43.71846" lon="7.16473">
        <ele>260.638173</ele>
        <time>2011-05-28T17:09:33Z</time>
      </trkpt>
      <trkpt lat="43.71848" lon="7.16456">
        <ele>258.61603</ele>
        <time>2011-05-28T17:09:36Z</time>
      </trkpt>
      <trkpt lat="43.71848" lon="7.16439">
        <ele>257.624792</ele>
        <time>2011-05-28T17:09:39Z</time>
      </trkpt>
      <trkpt lat="43.71851" lon="7.1642">
        <ele>257.45557</ele>
        <time>2011-05-28T17:09:42Z</time>
      </trkpt>
      <trkpt lat="43.71866" lon="7.16396">
        <ele>257.635179</ele>
        <time>2011-05-28T17:09:45Z</time>
      </trkpt>
      <trkpt lat="43.7188" lon="7.1638">
        <ele>257.906569</ele>
        <time>2011-05-28T17:09:48Z</time>
      </trkpt>
      <trkpt lat="43.7188" lon="7.1638">
        <ele>258.16329</ele>
        <time>2011-05-28T17:09:51Z</time>
      </trkpt>
      <trkpt lat="43.71898" lon="7.16367">
        <ele>258.708037</ele>
        <time>2011-05-28T17:10:16Z</time>
      </trkpt>
      <trkpt lat="43.71898" lon="7.16367">
        <ele>259.759948</ele>
        <time>2011-05-28T17:10:20Z</time>
      </trkpt>
      <trkpt lat="43.71927" lon="7.16354">
        <ele>261.761444</ele>
        <time>2011-05-28T17:10:34Z</time>
      </trkpt>
      <trkpt lat="43.71938" lon="7.16358">
        <ele>265.104516</ele>
        <time>2011-05-28T17:10:41Z</time>
      </trkpt>
      <trkpt lat="43.71947" lon="7.16354">
        <ele>268.7719</ele>
        <time>2011-05-28T17:10:46Z</time>
      </trkpt>
      <trkpt lat="43.71957" lon="7.16349">
        <ele>271.170206</ele>
        <time>2011-05-28T17:10:51Z</time>
      </trkpt>
      <trkpt lat="43.71966" lon="7.16344">
        <ele>272.074477</ele>
        <time>2011-05-28T17:10:56Z</time>
      </trkpt>
      <trkpt lat="43.71977" lon="7.16343">
        <ele>272.024556</ele>
        <time>2011-05-28T17:11:01Z</time>
      </trkpt>
      <trkpt lat="43.71977" lon="7.16343">
        <ele>271.689663</ele>
        <time>2011-05-28T17:11:16Z</time>
      </trkpt>
      <trkpt lat="43.72011" lon="7.16346">
        <ele>271.445194</ele>
        <time>2011-05-28T17:12:06Z</time>
      </trkpt>
      <trkpt lat="43.72011" lon="7.16346">
        <ele>271.30113</ele>
        <time>2011-05-28T17:12:08Z</time>
      </trkpt>
      <trkpt lat="43.72011" lon="7.16346">
        <ele>271.16644</ele>
        <time>2011-05-28T17:12:09Z</time>
      </trkpt>
      <trkpt lat="43.72011" lon="7.16346">
        <ele>271.047448</ele>
        <time>2011-05-28T17:12:09Z</time>
      </trkpt>
      <trkpt lat="43.72029" lon="7.16316">
        <ele>270.952768</ele>
        <time>2011-05-28T17:12:59Z</time>
      </trkpt>
      <trkpt lat="43.72035" lon="7.16305">
        <ele>270.886057</ele>
        <time>2011-05-28T17:13:04Z</time>
      </trkpt>
      <trkpt lat="43.7204" lon="7.16295">
        <ele>270.244901</ele>
        <time>2011-05-28T17:13:08Z</time>
      </trkpt>
      <trkpt lat="43.72048" lon="7.16284">
        <ele>266.731215</ele>
        <time>2011-05-28T17:13:12Z</time>
      </trkpt>
      <trkpt lat="43.72057" lon="7.16277">
        <ele>259.905201</ele>
        <time>2011-05-28T17:13:24Z</time>
      </trkpt>
      <trkpt lat="43.72057" lon="7.16277">
        <ele>253.49739</ele>
        <time>2011-05-28T17:13:32Z</time>
      </trkpt>
      <trkpt lat="43.72057" lon="7.16277">
        <ele>250.436622</ele>
        <time>2011-05-28T17:13:54Z</time>
      </trkpt>
      <trkpt lat="43.72065" lon="7.16238">
        <ele>249.846287</ele>
        <time>2011-05-28T17:14:38Z</time>
      </trkpt>
      <trkpt lat="43.72068" lon="7.16226">
        <ele>249.974401</ele>
        <time>2011-05-28T17:14:44Z</time>
      </trkpt>
      <trkpt lat="43.72072" lon="7.16215">
        <ele>249.816266</ele>
        <time>2011-05-28T17:14:56Z</time>
      </trkpt>
      <trkpt lat="43.72072" lon="7.16215">
        <ele>249.303876</ele>
        <time>2011-05-28T17:15:03Z</time>
      </trkpt>
      <trkpt lat="43.72076" lon="7.16177">
        <ele>248.445536</ele>
        <time>2011-05-28T17:15:25Z</time>
      </trkpt>
      <trkpt lat="43.72082" lon="7.16163">
        <ele>247.255253</ele>
        <time>2011-05-28T17:15:28Z</time>
      </trkpt>
      <trkpt lat="43.72089" lon="7.16149">
        <ele>246.231859</ele>
        <time>2011-05-28T17:15:31Z</time>
      </trkpt>
      <trkpt lat="43.72097" lon="7.16136">
        <ele>245.832189</ele>
        <time>2011-05-28T17:15:34Z</time>
      </trkpt>
      <trkpt lat="43.72106" lon="7.16125">
        <ele>245.939544</ele>
        <time>2011-05-28T17:15:37Z</time>
      </trkpt>
      <trkpt lat="43.72117" lon="7.16113">
        <ele>246.328623</ele>
        <time>2011-05-28T17:15:40Z</time>
      </trkpt>
      <trkpt lat="43.72127" lon="7.16103">
        <ele>246.724985</ele>
        <time>2011-05-28T17:15:43Z</time>
      </trkpt>
      <trkpt lat="43.72139" lon="7.16097">
        <ele>246.920359</ele>
        <time>2011-05-28T17:15:46Z</time>
      </trkpt>
      <trkpt lat="43.7215" lon="7.16095">
        <ele>246.929718</ele>
        <time>2011-05-28T17:15:49Z</time>
      </trkpt>
      <trkpt lat="43.7215" lon="7.16095">
        <ele>246.88109</ele>
        <time>2011-05-28T17:15:53Z</time>
      </trkpt>
      <trkpt lat="43.72184" lon="7.1609">
        <ele>246.815866</ele>
        <time>2011-05-28T17:16:24Z</time>
      </trkpt>
      <trkpt lat="43.72192" lon="7.16085">
        <ele>246.709263</ele>
        <time>2011-05-28T17:16:27Z</time>
      </trkpt>
      <trkpt lat="43.72201" lon="7.16079">
        <ele>246.52372</ele>
        <time>2011-05-28T17:16:29Z</time>
      </trkpt>
      <trkpt lat="43.72201" lon="7.16079">
        <ele>246.289643</ele>
        <time>2011-05-28T17:16:33Z</time>
      </trkpt>
      <trkpt lat="43.72201" lon="7.16079">
        <ele>246.101308</ele>
        <time>2011-05-28T17:17:09Z</time>
      </trkpt>
      <trkpt lat="43.72182" lon="7.16086">
        <ele>246.007292</ele>
        <time>2011-05-28T17:17:56Z</time>
      </trkpt>
      <trkpt lat="43.72171" lon="7.16092">
        <ele>245.979952</ele>
        <time>2011-05-28T17:18:01Z</time>
      </trkpt>
      <trkpt lat="43.72166" lon="7.16081">
        <ele>245.98618</ele>
        <time>2011-05-28T17:18:18Z</time>
      </trkpt>
      <trkpt lat="43.72164" lon="7.16069">
        <ele>245.998654</ele>
        <time>2011-05-28T17:18:24Z</time>
      </trkpt>
      <trkpt lat="43.72156" lon="7.16062">
        <ele>246.006259</ele>
        <time>2011-05-28T17:18:31Z</time>
      </trkpt>
      <trkpt lat="43.72148" lon="7.16054">
        <ele>245.543618</ele>
        <time>2011-05-28T17:18:40Z</time>
      </trkpt>
      <trkpt lat="43.72141" lon="7.16048">
        <ele>243.976359</ele>
        <time>2011-05-28T17:18:52Z</time>
      </trkpt>
      <trkpt lat="43.7213" lon="7.16045">
        <ele>241.510462</ele>
        <time>2011-05-28T17:18:58Z</time>
      </trkpt>
      <trkpt lat="43.72121" lon="7.1605">
        <ele>239.009001</ele>
        <time>2011-05-28T17:19:02Z</time>
      </trkpt>
      <trkpt lat="43.72112" lon="7.16049">
        <ele>237.123359</ele>
        <time>2011-05-28T17:19:08Z</time>
      </trkpt>
      <trkpt lat="43.72103" lon="7.16045">
        <ele>236.067722</ele>
        <time>2011-05-28T17:19:13Z</time>
      </trkpt>
      <trkpt lat="43.72095" lon="7.16037">
        <ele>235.636016</ele>
        <time>2011-05-28T17:19:17Z</time>
      </trkpt>
      <trkpt lat="43.72087" lon="7.1603">
        <ele>235.501279</ele>
        <time>2011-05-28T17:19:22Z</time>
      </trkpt>
      <trkpt lat="43.7208" lon="7.16022">
        <ele>235.456867</ele>
        <time>2011-05-28T17:19:26Z</time>
      </trkpt>
      <trkpt lat="43.72072" lon="7.16013">
        <ele>235.426729</ele>
        <time>2011-05-28T17:19:34Z</time>
      </trkpt>
      <trkpt lat="43.72063" lon="7.16006">
        <ele>235.404396</ele>
        <time>2011-05-28T17:19:41Z</time>
      </trkpt>
      <trkpt lat="43.72053" lon="7.15999">
        <ele>235.386336</ele>
        <time>2011-05-28T17:19:45Z</time>
      </trkpt>
      <trkpt lat="43.72047" lon="7.15989">
        <ele>235.371209</ele>
        <time>2011-05-28T17:19:50Z</time>
      </trkpt>
      <trkpt lat="43.72044" lon="7.15976">
        <ele>235.363001</ele>
        <time>2011-05-28T17:19:53Z</time>
      </trkpt>
      <trkpt lat="43.72039" lon="7.15964">
        <ele>235.344551</ele>
        <time>2011-05-28T17:20:00Z</time>
      </trkpt>
      <trkpt lat="43.72037" lon="7.15952">
        <ele>235.291369</ele>
        <time>2011-05-28T17:20:09Z</time>
      </trkpt>
      <trkpt lat="43.72035" lon="7.15939">
        <ele>235.219828</ele>
        <time>2011-05-28T17:20:16Z</time>
      </trkpt>
      <trkpt lat="43.72031" lon="7.15925">
        <ele>235.170271</ele>
        <time>2011-05-28T17:20:20Z</time>
      </trkpt>
      <trkpt lat="43.7203" lon="7.15912">
        <ele>234.985846</ele>
        <time>2011-05-28T17:20:26Z</time>
      </trkpt>
      <trkpt lat="43.72035" lon="7.159">
        <ele>234.365731</ele>
        <time>2011-05-28T17:20:34Z</time>
      </trkpt>
      <trkpt lat="43.72038" lon="7.15888">
        <ele>233.309681</ele>
        <time>2011-05-28T17:20:41Z</time>
      </trkpt>
      <trkpt lat="43.72038" lon="7.15888">
        <ele>232.263071</ele>
        <time>2011-05-28T17:20:57Z</time>
      </trkpt>
      <trkpt lat="43.72038" lon="7.15888">
        <ele>231.645229</ele>
        <time>2011-05-28T17:21:51Z</time>
      </trkpt>
      <trkpt lat="43.72038" lon="7.15842">
        <ele>231.247812</ele>
        <time>2011-05-28T17:22:27Z</time>
      </trkpt>
      <trkpt lat="43.7204" lon="7.15829">
        <ele>230.257496</ele>
        <time>2011-05-28T17:22:35Z</time>
      </trkpt>
      <trkpt lat="43.72042" lon="7.15816">
        <ele>228.106135</ele>
        <time>2011-05-28T17:22:42Z</time>
      </trkpt>
      <trkpt lat="43.72048" lon="7.15806">
        <ele>223.731852</ele>
        <time>2011-05-28T17:22:52Z</time>
      </trkpt>
      <trkpt lat="43.72047" lon="7.15793">
        <ele>217.394675</ele>
        <time>2011-05-28T17:23:00Z</time>
      </trkpt>
      <trkpt lat="43.72046" lon="7.15779">
        <ele>212.155803</ele>
        <time>2011-05-28T17:23:06Z</time>
      </trkpt>
      <trkpt lat="43.72045" lon="7.15765">
        <ele>210.021953</ele>
        <time>2011-05-28T17:23:12Z</time>
      </trkpt>
      <trkpt lat="43.72044" lon="7.15752">
        <ele>210.061006</ele>
        <time>2011-05-28T17:23:19Z</time>
      </trkpt>
      <trkpt lat="43.72048" lon="7.15739">
        <ele>211.146137</ele>
        <time>2011-05-28T17:23:26Z</time>
      </trkpt>
      <trkpt lat="43.72051" lon="7.15726">
        <ele>212.586134</ele>
        <time>2011-05-28T17:23:34Z</time>
      </trkpt>
      <trkpt lat="43.7205" lon="7.15713">
        <ele>214.039737</ele>
        <time>2011-05-28T17:23:40Z</time>
      </trkpt>
      <trkpt lat="43.72052" lon="7.15699">
        <ele>215.390487</ele>
        <time>2011-05-28T17:23:45Z</time>
      </trkpt>
      <trkpt lat="43.72049" lon="7.15684">
        <ele>216.559878</ele>
        <time>2011-05-28T17:23:49Z</time>
      </trkpt>
      <trkpt lat="43.72051" lon="7.15671">
        <ele>217.510824</ele>
        <time>2011-05-28T17:23:54Z</time>
      </trkpt>
      <trkpt lat="43.72052" lon="7.15659">
        <ele>218.26991</ele>
        <time>2011-05-28T17:24:00Z</time>
      </trkpt>
      <trkpt lat="43.72052" lon="7.15659">
        <ele>218.808717</ele>
        <time>2011-05-28T17:24:19Z</time>
      </trkpt>
      <trkpt lat="43.72052" lon="7.15659">
        <ele>219.072594</ele>
        <time>2011-05-28T17:24:59Z</time>
      </trkpt>
      <trkpt lat="43.72053" lon="7.15612">
        <ele>219.167822</ele>
        <time>2011-05-28T17:26:22Z</time>
      </trkpt>
      <trkpt lat="43.72051" lon="7.15598">
        <ele>219.299872</ele>
        <time>2011-05-28T17:26:26Z</time>
      </trkpt>
      <trkpt lat="43.7205" lon="7.15584">
        <ele>219.552525</ele>
        <time>2011-05-28T17:26:30Z</time>
      </trkpt>
      <trkpt lat="43.7205" lon="7.15571">
        <ele>219.991093</ele>
        <time>2011-05-28T17:26:33Z</time>
      </trkpt>
      <trkpt lat="43.72046" lon="7.15554">
        <ele>220.608794</ele>
        <time>2011-05-28T17:26:36Z</time>
      </trkpt>
      <trkpt lat="43.72039" lon="7.15544">
        <ele>221.208751</ele>
        <time>2011-05-28T17:26:38Z</time>
      </trkpt>
      <trkpt lat="43.72028" lon="7.15535">
        <ele>221.662952</ele>
        <time>2011-05-28T17:26:41Z</time>
      </trkpt>
      <trkpt lat="43.72015" lon="7.15524">
        <ele>222.40858</ele>
        <time>2011-05-28T17:26:44Z</time>
      </trkpt>
      <trkpt lat="43.72007" lon="7.15517">
        <ele>223.781996</ele>
        <time>2011-05-28T17:26:46Z</time>
      </trkpt>
      <trkpt lat="43.71992" lon="7.15506">
        <ele>225.211275</ele>
        <time>2011-05-28T17:26:49Z</time>
      </trkpt>
      <trkpt lat="43.71982" lon="7.15498">
        <ele>225.993094</ele>
        <time>2011-05-28T17:26:51Z</time>
      </trkpt>
      <trkpt lat="43.71969" lon="7.15484">
        <ele>226.173762</ele>
        <time>2011-05-28T17:26:54Z</time>
      </trkpt>
      <trkpt lat="43.71959" lon="7.15476">
        <ele>225.856232</ele>
        <time>2011-05-28T17:26:56Z</time>
      </trkpt>
      <trkpt lat="43.71942" lon="7.15464">
        <ele>225.002406</ele>
        <time>2011-05-28T17:26:59Z</time>
      </trkpt>
      <trkpt lat="43.71926" lon="7.15453">
        <ele>223.797664</ele>
        <time>2011-05-28T17:27:02Z</time>
      </trkpt>
      <trkpt lat="43.71909" lon="7.15447">
        <ele>222.609869</ele>
        <time>2011-05-28T17:27:05Z</time>
      </trkpt>
      <trkpt lat="43.71898" lon="7.1544">
        <ele>221.724622</ele>
        <time>2011-05-28T17:27:07Z</time>
      </trkpt>
      <trkpt lat="43.71884" lon="7.15421">
        <ele>221.258366</ele>
        <time>2011-05-28T17:27:10Z</time>
      </trkpt>
      <trkpt lat="43.71869" lon="7.15404">
        <ele>221.100822</ele>
        <time>2011-05-28T17:27:13Z</time>
      </trkpt>
      <trkpt lat="43.71858" lon="7.15395">
        <ele>221.062842</ele>
        <time>2011-05-28T17:27:15Z</time>
      </trkpt>
      <trkpt lat="43.71838" lon="7.15386">
        <ele>220.950455</ele>
        <time>2011-05-28T17:27:18Z</time>
      </trkpt>
      <trkpt lat="43.71824" lon="7.15378">
        <ele>220.581891</ele>
        <time>2011-05-28T17:27:20Z</time>
      </trkpt>
      <trkpt lat="43.71809" lon="7.15367">
        <ele>219.931413</ele>
        <time>2011-05-28T17:27:22Z</time>
      </trkpt>
      <trkpt lat="43.71795" lon="7.15356">
        <ele>219.256166</ele>
        <time>2011-05-28T17:27:24Z</time>
      </trkpt>
      <trkpt lat="43.71776" lon="7.15341">
        <ele>218.848453</ele>
        <time>2011-05-28T17:27:27Z</time>
      </trkpt>
      <trkpt lat="43.71765" lon="7.15332">
        <ele>218.734259</ele>
        <time>2011-05-28T17:27:29Z</time>
      </trkpt>
      <trkpt lat="43.71756" lon="7.15325">
        <ele>218.905235</ele>
        <time>2011-05-28T17:27:31Z</time>
      </trkpt>
      <trkpt lat="43.71756" lon="7.15325">
        <ele>219.326959</ele>
        <time>2011-05-28T17:27:34Z</time>
      </trkpt>
      <trkpt lat="43.71756" lon="7.15325">
        <ele>219.736045</ele>
        <time>2011-05-28T17:28:02Z</time>
      </trkpt>
      <trkpt lat="43.71743" lon="7.15282">
        <ele>219.958914</ele>
        <time>2011-05-28T17:28:27Z</time>
      </trkpt>
      <trkpt lat="43.71744" lon="7.15267">
        <ele>220.075545</ele>
        <time>2011-05-28T17:28:31Z</time>
      </trkpt>
      <trkpt lat="43.71747" lon="7.15252">
        <ele>220.111908</ele>
        <time>2011-05-28T17:28:35Z</time>
      </trkpt>
      <trkpt lat="43.71752" lon="7.15239">
        <ele>220.062953</ele>
        <time>2011-05-28T17:28:40Z</time>
      </trkpt>
      <trkpt lat="43.71752" lon="7.15239">
        <ele>219.990255</ele>
        <time>2011-05-28T17:28:42Z</time>
      </trkpt>
      <trkpt lat="43.71759" lon="7.15212">
        <ele>219.947596</ele>
        <time>2011-05-28T17:28:48Z</time>
      </trkpt>
      <trkpt lat="43.71759" lon="7.15212">
        <ele>219.938172</ele>
        <time>2011-05-28T17:28:53Z</time>
      </trkpt>
      <trkpt lat="43.71783" lon="7.1519">
        <ele>219.945517</ele>
        <time>2011-05-28T17:29:00Z</time>
      </trkpt>
      <trkpt lat="43.71791" lon="7.15182">
        <ele>219.960646</ele>
        <time>2011-05-28T17:29:04Z</time>
      </trkpt>
      <trkpt lat="43.71799" lon="7.15173">
        <ele>219.997179</ele>
        <time>2011-05-28T17:29:08Z</time>
      </trkpt>
      <trkpt lat="43.71806" lon="7.15164">
        <ele>220.148475</ele>
        <time>2011-05-28T17:29:12Z</time>
      </trkpt>
      <trkpt lat="43.71815" lon="7.15156">
        <ele>220.500054</ele>
        <time>2011-05-28T17:29:17Z</time>
      </trkpt>
      <trkpt lat="43.71824" lon="7.1515">
        <ele>220.980119</ele>
        <time>2011-05-28T17:29:22Z</time>
      </trkpt>
      <trkpt lat="43.71834" lon="7.15145">
        <ele>221.460257</ele>
        <time>2011-05-28T17:29:27Z</time>
      </trkpt>
      <trkpt lat="43.71844" lon="7.1514">
        <ele>221.922268</ele>
        <time>2011-05-28T17:29:32Z</time>
      </trkpt>
      <trkpt lat="43.71854" lon="7.15139">
        <ele>222.416602</ele>
        <time>2011-05-28T17:29:37Z</time>
      </trkpt>
      <trkpt lat="43.71865" lon="7.15135">
        <ele>222.976188</ele>
        <time>2011-05-28T17:29:42Z</time>
      </trkpt>
      <trkpt lat="43.71875" lon="7.15129">
        <ele>223.579512</ele>
        <time>2011-05-28T17:29:47Z</time>
      </trkpt>
      <trkpt lat="43.71884" lon="7.15125">
        <ele>224.175023</ele>
        <time>2011-05-28T17:29:51Z</time>
      </trkpt>
      <trkpt lat="43.71894" lon="7.1512">
        <ele>224.792835</ele>
        <time>2011-05-28T17:29:56Z</time>
      </trkpt>
      <trkpt lat="43.71904" lon="7.15114">
        <ele>225.545828</ele>
        <time>2011-05-28T17:30:01Z</time>
      </trkpt>
      <trkpt lat="43.71915" lon="7.15112">
        <ele>226.436921</ele>
        <time>2011-05-28T17:30:06Z</time>
      </trkpt>
      <trkpt lat="43.71925" lon="7.15108">
        <ele>227.237127</ele>
        <time>2011-05-28T17:30:11Z</time>
      </trkpt>
      <trkpt lat="43.71934" lon="7.15105">
        <ele>227.703467</ele>
        <time>2011-05-28T17:30:15Z</time>
      </trkpt>
      <trkpt lat="43.71944" lon="7.15101">
        <ele>227.83119</ele>
        <time>2011-05-28T17:30:20Z</time>
      </trkpt>
      <trkpt lat="43.71954" lon="7.15096">
        <ele>227.794362</ele>
        <time>2011-05-28T17:30:25Z</time>
      </trkpt>
      <trkpt lat="43.71962" lon="7.1509">
        <ele>227.663715</ele>
        <time>2011-05-28T17:30:31Z</time>
      </trkpt>
      <trkpt lat="43.71969" lon="7.15082">
        <ele>227.390394</ele>
        <time>2011-05-28T17:30:36Z</time>
      </trkpt>
      <trkpt lat="43.71977" lon="7.15072">
        <ele>227.040189</ele>
        <time>2011-05-28T17:30:42Z</time>
      </trkpt>
      <trkpt lat="43.71985" lon="7.15065">
        <ele>226.792464</ele>
        <time>2011-05-28T17:30:48Z</time>
      </trkpt>
      <trkpt lat="43.71995" lon="7.15061">
        <ele>226.705965</ele>
        <time>2011-05-28T17:30:54Z</time>
      </trkpt>
      <trkpt lat="43.72004" lon="7.15056">
        <ele>226.743352</ele>
        <time>2011-05-28T17:31:00Z</time>
      </trkpt>
      <trkpt lat="43.72014" lon="7.1505">
        <ele>226.865832</ele>
        <time>2011-05-28T17:31:06Z</time>
      </trkpt>
      <trkpt lat="43.72022" lon="7.15042">
        <ele>227.007241</ele>
        <time>2011-05-28T17:31:11Z</time>
      </trkpt>
      <trkpt lat="43.72029" lon="7.15035">
        <ele>227.13673</ele>
        <time>2011-05-28T17:31:16Z</time>
      </trkpt>
      <trkpt lat="43.72033" lon="7.15022">
        <ele>227.299384</ele>
        <time>2011-05-28T17:31:22Z</time>
      </trkpt>
      <trkpt lat="43.72035" lon="7.1501">
        <ele>227.520459</ele>
        <time>2011-05-28T17:31:27Z</time>
      </trkpt>
      <trkpt lat="43.72036" lon="7.14996">
        <ele>227.765001</ele>
        <time>2011-05-28T17:31:32Z</time>
      </trkpt>
      <trkpt lat="43.72036" lon="7.14983">
        <ele>227.995754</ele>
        <time>2011-05-28T17:31:37Z</time>
      </trkpt>
      <trkpt lat="43.72036" lon="7.14983">
        <ele>228.180612</ele>
        <time>2011-05-28T17:31:53Z</time>
      </trkpt>
      <trkpt lat="43.72036" lon="7.14983">
        <ele>228.2841</ele>
        <time>2011-05-28T17:32:09Z</time>
      </trkpt>
      <trkpt lat="43.72039" lon="7.14935">
        <ele>228.324425</ele>
        <time>2011-05-28T17:33:01Z</time>
      </trkpt>
      <trkpt lat="43.72036" lon="7.14922">
        <ele>228.380403</ele>
        <time>2011-05-28T17:33:08Z</time>
      </trkpt>
      <trkpt lat="43.72031" lon="7.14911">
        <ele>228.511159</ele>
        <time>2011-05-28T17:33:14Z</time>
      </trkpt>
      <trkpt lat="43.72026" lon="7.149">
        <ele>228.708657</ele>
        <time>2011-05-28T17:33:21Z</time>
      </trkpt>
      <trkpt lat="43.7202" lon="7.14889">
        <ele>228.90471</ele>
        <time>2011-05-28T17:33:28Z</time>
      </trkpt>
      <trkpt lat="43.72013" lon="7.14879">
        <ele>229.045034</ele>
        <time>2011-05-28T17:33:34Z</time>
      </trkpt>
      <trkpt lat="43.7201" lon="7.14867">
        <ele>229.142795</ele>
        <time>2011-05-28T17:33:42Z</time>
      </trkpt>
      <trkpt lat="43.72016" lon="7.14853">
        <ele>229.230041</ele>
        <time>2011-05-28T17:33:48Z</time>
      </trkpt>
      <trkpt lat="43.72025" lon="7.14847">
        <ele>229.318136</ele>
        <time>2011-05-28T17:33:55Z</time>
      </trkpt>
      <trkpt lat="43.72033" lon="7.14854">
        <ele>229.438561</ele>
        <time>2011-05-28T17:34:02Z</time>
      </trkpt>
      <trkpt lat="43.72039" lon="7.14863">
        <ele>229.695145</ele>
        <time>2011-05-28T17:34:07Z</time>
      </trkpt>
      <trkpt lat="43.72045" lon="7.14875">
        <ele>230.255611</ele>
        <time>2011-05-28T17:34:13Z</time>
      </trkpt>
      <trkpt lat="43.7205" lon="7.14887">
        <ele>231.231276</ele>
        <time>2011-05-28T17:34:18Z</time>
      </trkpt>
      <trkpt lat="43.72055" lon="7.149">
        <ele>232.506002</ele>
        <time>2011-05-28T17:34:23Z</time>
      </trkpt>
      <trkpt lat="43.72059" lon="7.14912">
        <ele>233.836733</ele>
        <time>2011-05-28T17:34:28Z</time>
      </trkpt>
      <trkpt lat="43.72063" lon="7.14924">
        <ele>235.064586</ele>
        <time>2011-05-28T17:34:35Z</time>
      </trkpt>
      <trkpt lat="43.72065" lon="7.14936">
        <ele>236.133947</ele>
        <time>2011-05-28T17:34:40Z</time>
      </trkpt>
      <trkpt lat="43.7207" lon="7.14948">
        <ele>237.055469</ele>
        <time>2011-05-28T17:34:47Z</time>
      </trkpt>
      <trkpt lat="43.72074" lon="7.14959">
        <ele>237.941415</ele>
        <time>2011-05-28T17:34:52Z</time>
      </trkpt>
      <trkpt lat="43.7208" lon="7.14968">
        <ele>238.883366</ele>
        <time>2011-05-28T17:34:57Z</time>
      </trkpt>
      <trkpt lat="43.72085" lon="7.14981">
        <ele>239.903197</ele>
        <time>2011-05-28T17:35:03Z</time>
      </trkpt>
      <trkpt lat="43.72089" lon="7.14993">
        <ele>240.981124</ele>
        <time>2011-05-28T17:35:08Z</time>
      </trkpt>
      <trkpt lat="43.72096" lon="7.15003">
        <ele>242.046727</ele>
        <time>2011-05-28T17:35:13Z</time>
      </trkpt>
      <trkpt lat="43.72104" lon="7.15012">
        <ele>243.048925</ele>
        <time>2011-05-28T17:35:19Z</time>
      </trkpt>
      <trkpt lat="43.7211" lon="7.15024">
        <ele>244.021475</ele>
        <time>2011-05-28T17:35:26Z</time>
      </trkpt>
      <trkpt lat="43.72118" lon="7.15031">
        <ele>244.991976</ele>
        <time>2011-05-28T17:35:32Z</time>
      </trkpt>
      <trkpt lat="43.72125" lon="7.15041">
        <ele>245.998618</ele>
        <time>2011-05-28T17:35:39Z</time>
      </trkpt>
      <trkpt lat="43.72131" lon="7.15049">
        <ele>247.130044</ele>
        <time>2011-05-28T17:35:43Z</time>
      </trkpt>
      <trkpt lat="43.72139" lon="7.15058">
        <ele>248.408122</ele>
        <time>2011-05-28T17:35:48Z</time>
      </trkpt>
      <trkpt lat="43.72145" lon="7.15069">
        <ele>249.767459</ele>
        <time>2011-05-28T17:35:55Z</time>
      </trkpt>
      <trkpt lat="43.72151" lon="7.15079">
        <ele>251.072313</ele>
        <time>2011-05-28T17:36:01Z</time>
      </trkpt>
      <trkpt lat="43.72157" lon="7.1509">
        <ele>252.1819</ele>
        <time>2011-05-28T17:36:08Z</time>
      </trkpt>
      <trkpt lat="43.72159" lon="7.15103">
        <ele>253.176069</ele>
        <time>2011-05-28T17:36:16Z</time>
      </trkpt>
      <trkpt lat="43.72162" lon="7.15117">
        <ele>254.24845</ele>
        <time>2011-05-28T17:36:20Z</time>
      </trkpt>
      <trkpt lat="43.72163" lon="7.15132">
        <ele>255.396952</ele>
        <time>2011-05-28T17:36:24Z</time>
      </trkpt>
      <trkpt lat="43.72165" lon="7.15145">
        <ele>256.536107</ele>
        <time>2011-05-28T17:36:28Z</time>
      </trkpt>
      <trkpt lat="43.72164" lon="7.1516">
        <ele>257.498247</ele>
        <time>2011-05-28T17:36:32Z</time>
      </trkpt>
      <trkpt lat="43.72162" lon="7.15173">
        <ele>258.048587</ele>
        <time>2011-05-28T17:36:36Z</time>
      </trkpt>
      <trkpt lat="43.7216" lon="7.15187">
        <ele>258.188289</ele>
        <time>2011-05-28T17:36:41Z</time>
      </trkpt>
      <trkpt lat="43.72161" lon="7.15199">
        <ele>258.11667</ele>
        <time>2011-05-28T17:36:46Z</time>
      </trkpt>
      <trkpt lat="43.7216" lon="7.15212">
        <ele>257.945254</ele>
        <time>2011-05-28T17:36:51Z</time>
      </trkpt>
      <trkpt lat="43.72157" lon="7.15225">
        <ele>257.686285</ele>
        <time>2011-05-28T17:36:57Z</time>
      </trkpt>
      <trkpt lat="43.72156" lon="7.1524">
        <ele>257.374024</ele>
        <time>2011-05-28T17:37:03Z</time>
      </trkpt>
      <trkpt lat="43.72155" lon="7.15254">
        <ele>257.113794</ele>
        <time>2011-05-28T17:37:09Z</time>
      </trkpt>
      <trkpt lat="43.72151" lon="7.15266">
        <ele>256.983079</ele>
        <time>2011-05-28T17:37:15Z</time>
      </trkpt>
      <trkpt lat="43.72151" lon="7.15279">
        <ele>256.95893</ele>
        <time>2011-05-28T17:37:22Z</time>
      </trkpt>
      <trkpt lat="43.72154" lon="7.15294">
        <ele>257.067037</ele>
        <time>2011-05-28T17:37:29Z</time>
      </trkpt>
      <trkpt lat="43.72156" lon="7.15308">
        <ele>257.426944</ele>
        <time>2011-05-28T17:37:34Z</time>
      </trkpt>
      <trkpt lat="43.7216" lon="7.1532">
        <ele>258.123096</ele>
        <time>2011-05-28T17:37:38Z</time>
      </trkpt>
      <trkpt lat="43.72164" lon="7.15333">
        <ele>259.122027</ele>
        <time>2011-05-28T17:37:45Z</time>
      </trkpt>
      <trkpt lat="43.72167" lon="7.15347">
        <ele>260.250902</ele>
        <time>2011-05-28T17:37:49Z</time>
      </trkpt>
      <trkpt lat="43.72173" lon="7.15358">
        <ele>261.269744</ele>
        <time>2011-05-28T17:37:53Z</time>
      </trkpt>
      <trkpt lat="43.72179" lon="7.15369">
        <ele>262.166845</ele>
        <time>2011-05-28T17:37:59Z</time>
      </trkpt>
      <trkpt lat="43.72185" lon="7.15378">
        <ele>263.083286</ele>
        <time>2011-05-28T17:38:05Z</time>
      </trkpt>
      <trkpt lat="43.72194" lon="7.15384">
        <ele>263.988392</ele>
        <time>2011-05-28T17:38:11Z</time>
      </trkpt>
      <trkpt lat="43.72202" lon="7.15392">
        <ele>264.790258</ele>
        <time>2011-05-28T17:38:16Z</time>
      </trkpt>
      <trkpt lat="43.72208" lon="7.15402">
        <ele>265.503226</ele>
        <time>2011-05-28T17:38:21Z</time>
      </trkpt>
      <trkpt lat="43.72219" lon="7.15407">
        <ele>266.1206</ele>
        <time>2011-05-28T17:38:27Z</time>
      </trkpt>
      <trkpt lat="43.72229" lon="7.15415">
        <ele>266.641551</ele>
        <time>2011-05-28T17:38:32Z</time>
      </trkpt>
      <trkpt lat="43.72237" lon="7.15428">
        <ele>267.149727</ele>
        <time>2011-05-28T17:38:35Z</time>
      </trkpt>
      <trkpt lat="43.72246" lon="7.15434">
        <ele>267.814839</ele>
        <time>2011-05-28T17:38:40Z</time>
      </trkpt>
      <trkpt lat="43.72256" lon="7.15433">
        <ele>268.822396</ele>
        <time>2011-05-28T17:38:45Z</time>
      </trkpt>
      <trkpt lat="43.72265" lon="7.1543">
        <ele>270.106792</ele>
        <time>2011-05-28T17:38:51Z</time>
      </trkpt>
      <trkpt lat="43.72274" lon="7.15426">
        <ele>271.376258</ele>
        <time>2011-05-28T17:38:58Z</time>
      </trkpt>
      <trkpt lat="43.72283" lon="7.15419">
        <ele>272.403791</ele>
        <time>2011-05-28T17:39:05Z</time>
      </trkpt>
      <trkpt lat="43.72292" lon="7.15414">
        <ele>273.066515</ele>
        <time>2011-05-28T17:39:11Z</time>
      </trkpt>
      <trkpt lat="43.72302" lon="7.15409">
        <ele>273.335756</ele>
        <time>2011-05-28T17:39:17Z</time>
      </trkpt>
      <trkpt lat="43.72311" lon="7.15403">
        <ele>273.349391</ele>
        <time>2011-05-28T17:39:22Z</time>
      </trkpt>
      <trkpt lat="43.7232" lon="7.15397">
        <ele>273.277938</ele>
        <time>2011-05-28T17:39:27Z</time>
      </trkpt>
      <trkpt lat="43.72328" lon="7.15391">
        <ele>273.17141</ele>
        <time>2011-05-28T17:39:32Z</time>
      </trkpt>
      <trkpt lat="43.72337" lon="7.15384">
        <ele>273.005695</ele>
        <time>2011-05-28T17:39:38Z</time>
      </trkpt>
      <trkpt lat="43.72344" lon="7.15375">
        <ele>272.798336</ele>
        <time>2011-05-28T17:39:44Z</time>
      </trkpt>
      <trkpt lat="43.7235" lon="7.15364">
        <ele>272.602207</ele>
        <time>2011-05-28T17:39:50Z</time>
      </trkpt>
      <trkpt lat="43.72354" lon="7.15353">
        <ele>272.42488</ele>
        <time>2011-05-28T17:39:55Z</time>
      </trkpt>
      <trkpt lat="43.7236" lon="7.15341">
        <ele>272.268713</ele>
        <time>2011-05-28T17:40:01Z</time>
      </trkpt>
      <trkpt lat="43.72366" lon="7.1533">
        <ele>272.169167</ele>
        <time>2011-05-28T17:40:06Z</time>
      </trkpt>
      <trkpt lat="43.72374" lon="7.1532">
        <ele>272.138807</ele>
        <time>2011-05-28T17:40:12Z</time>
      </trkpt>
      <trkpt lat="43.72382" lon="7.15314">
        <ele>272.150485</ele>
        <time>2011-05-28T17:40:17Z</time>
      </trkpt>
      <trkpt lat="43.72391" lon="7.15308">
        <ele>272.210402</ele>
        <time>2011-05-28T17:40:22Z</time>
      </trkpt>
      <trkpt lat="43.72398" lon="7.15301">
        <ele>272.350748</ele>
        <time>2011-05-28T17:40:28Z</time>
      </trkpt>
      <trkpt lat="43.72408" lon="7.15298">
        <ele>272.563145</ele>
        <time>2011-05-28T17:40:34Z</time>
      </trkpt>
      <trkpt lat="43.72419" lon="7.15296">
        <ele>272.802002</ele>
        <time>2011-05-28T17:40:40Z</time>
      </trkpt>
      <trkpt lat="43.72428" lon="7.15295">
        <ele>273.054436</ele>
        <time>2011-05-28T17:40:45Z</time>
      </trkpt>
      <trkpt lat="43.72439" lon="7.15296">
        <ele>273.335785</ele>
        <time>2011-05-28T17:40:51Z</time>
      </trkpt>
      <trkpt lat="43.72449" lon="7.15298">
        <ele>273.642546</ele>
        <time>2011-05-28T17:40:57Z</time>
      </trkpt>
      <trkpt lat="43.72456" lon="7.15306">
        <ele>273.948654</ele>
        <time>2011-05-28T17:41:03Z</time>
      </trkpt>
      <trkpt lat="43.72461" lon="7.15317">
        <ele>274.234421</ele>
        <time>2011-05-28T17:41:12Z</time>
      </trkpt>
      <trkpt lat="43.72461" lon="7.15331">
        <ele>274.465448</ele>
        <time>2011-05-28T17:41:18Z</time>
      </trkpt>
      <trkpt lat="43.72464" lon="7.15345">
        <ele>274.606478</ele>
        <time>2011-05-28T17:41:23Z</time>
      </trkpt>
      <trkpt lat="43.72471" lon="7.15354">
        <ele>274.751679</ele>
        <time>2011-05-28T17:41:26Z</time>
      </trkpt>
      <trkpt lat="43.72481" lon="7.15362">
        <ele>275.071348</ele>
        <time>2011-05-28T17:41:29Z</time>
      </trkpt>
      <trkpt lat="43.72491" lon="7.15368">
        <ele>275.625841</ele>
        <time>2011-05-28T17:41:32Z</time>
      </trkpt>
      <trkpt lat="43.725" lon="7.15371">
        <ele>276.335245</ele>
        <time>2011-05-28T17:41:35Z</time>
      </trkpt>
      <trkpt lat="43.7251" lon="7.15373">
        <ele>277.07355</ele>
        <time>2011-05-28T17:41:38Z</time>
      </trkpt>
      <trkpt lat="43.72519" lon="7.15377">
        <ele>277.773145</ele>
        <time>2011-05-28T17:41:41Z</time>
      </trkpt>
      <trkpt lat="43.72528" lon="7.15383">
        <ele>278.458426</ele>
        <time>2011-05-28T17:41:44Z</time>
      </trkpt>
      <trkpt lat="43.72538" lon="7.15391">
        <ele>279.160032</ele>
        <time>2011-05-28T17:41:47Z</time>
      </trkpt>
      <trkpt lat="43.7255" lon="7.15398">
        <ele>279.879183</ele>
        <time>2011-05-28T17:41:50Z</time>
      </trkpt>
      <trkpt lat="43.72559" lon="7.15403">
        <ele>280.601336</ele>
        <time>2011-05-28T17:41:53Z</time>
      </trkpt>
      <trkpt lat="43.72568" lon="7.15409">
        <ele>281.320831</ele>
        <time>2011-05-28T17:41:57Z</time>
      </trkpt>
      <trkpt lat="43.72577" lon="7.15411">
        <ele>282.042076</ele>
        <time>2011-05-28T17:42:04Z</time>
      </trkpt>
      <trkpt lat="43.72587" lon="7.15413">
        <ele>282.767868</ele>
        <time>2011-05-28T17:42:09Z</time>
      </trkpt>
      <trkpt lat="43.72596" lon="7.15418">
        <ele>283.518055</ele>
        <time>2011-05-28T17:42:15Z</time>
      </trkpt>
      <trkpt lat="43.72596" lon="7.15418">
        <ele>284.203528</ele>
        <time>2011-05-28T17:42:16Z</time>
      </trkpt>
      <trkpt lat="43.72596" lon="7.15418">
        <ele>284.628208</ele>
        <time>2011-05-28T17:43:02Z</time>
      </trkpt>
      <trkpt lat="43.72623" lon="7.15428">
        <ele>284.94343</ele>
        <time>2011-05-28T17:44:32Z</time>
      </trkpt>
      <trkpt lat="43.72633" lon="7.15431">
        <ele>285.41365</ele>
        <time>2011-05-28T17:44:39Z</time>
      </trkpt>
      <trkpt lat="43.72642" lon="7.15435">
        <ele>285.779124</ele>
        <time>2011-05-28T17:44:46Z</time>
      </trkpt>
      <trkpt lat="43.72652" lon="7.15434">
        <ele>285.725294</ele>
        <time>2011-05-28T17:44:52Z</time>
      </trkpt>
      <trkpt lat="43.72662" lon="7.15434">
        <ele>285.43766</ele>
        <time>2011-05-28T17:44:58Z</time>
      </trkpt>
      <trkpt lat="43.72672" lon="7.15437">
        <ele>285.236707</ele>
        <time>2011-05-28T17:45:03Z</time>
      </trkpt>
      <trkpt lat="43.72682" lon="7.15434">
        <ele>285.244621</ele>
        <time>2011-05-28T17:45:08Z</time>
      </trkpt>
      <trkpt lat="43.7269" lon="7.15431">
        <ele>285.380326</ele>
        <time>2011-05-28T17:45:14Z</time>
      </trkpt>
      <trkpt lat="43.72698" lon="7.15425">
        <ele>285.558149</ele>
        <time>2011-05-28T17:45:20Z</time>
      </trkpt>
      <trkpt lat="43.72706" lon="7.15417">
        <ele>285.816237</ele>
        <time>2011-05-28T17:45:27Z</time>
      </trkpt>
      <trkpt lat="43.72715" lon="7.15411">
        <ele>286.211298</ele>
        <time>2011-05-28T17:45:33Z</time>
      </trkpt>
      <trkpt lat="43.72725" lon="7.15406">
        <ele>286.728991</ele>
        <time>2011-05-28T17:45:39Z</time>
      </trkpt>
      <trkpt lat="43.72734" lon="7.15403">
        <ele>287.35238</ele>
        <time>2011-05-28T17:45:44Z</time>
      </trkpt>
      <trkpt lat="43.72743" lon="7.15398">
        <ele>288.08067</ele>
        <time>2011-05-28T17:45:51Z</time>
      </trkpt>
      <trkpt lat="43.72753" lon="7.15392">
        <ele>288.895396</ele>
        <time>2011-05-28T17:45:57Z</time>
      </trkpt>
      <trkpt lat="43.7276" lon="7.15384">
        <ele>289.752496</ele>
        <time>2011-05-28T17:46:01Z</time>
      </trkpt>
      <trkpt lat="43.72769" lon="7.15378">
        <ele>290.68541</ele>
        <time>2011-05-28T17:46:06Z</time>
      </trkpt>
      <trkpt lat="43.72777" lon="7.1537">
        <ele>291.76797</ele>
        <time>2011-05-28T17:46:12Z</time>
      </trkpt>
      <trkpt lat="43.72784" lon="7.15359">
        <ele>292.911796</ele>
        <time>2011-05-28T17:46:16Z</time>
      </trkpt>
      <trkpt lat="43.72793" lon="7.15353">
        <ele>293.939199</ele>
        <time>2011-05-28T17:46:21Z</time>
      </trkpt>
      <trkpt lat="43.72801" lon="7.15345">
        <ele>294.837918</ele>
        <time>2011-05-28T17:46:26Z</time>
      </trkpt>
      <trkpt lat="43.7281" lon="7.1534">
        <ele>295.629242</ele>
        <time>2011-05-28T17:46:30Z</time>
      </trkpt>
      <trkpt lat="43.7282" lon="7.15335">
        <ele>296.241662</ele>
        <time>2011-05-28T17:46:34Z</time>
      </trkpt>
      <trkpt lat="43.72831" lon="7.15335">
        <ele>296.681357</ele>
        <time>2011-05-28T17:46:38Z</time>
      </trkpt>
      <trkpt lat="43.72841" lon="7.15334">
        <ele>297.049603</ele>
        <time>2011-05-28T17:46:42Z</time>
      </trkpt>
      <trkpt lat="43.7285" lon="7.1533">
        <ele>297.39739</ele>
        <time>2011-05-28T17:46:46Z</time>
      </trkpt>
      <trkpt lat="43.72861" lon="7.15331">
        <ele>297.735341</ele>
        <time>2011-05-28T17:46:51Z</time>
      </trkpt>
      <trkpt lat="43.72872" lon="7.15331">
        <ele>298.087364</ele>
        <time>2011-05-28T17:46:55Z</time>
      </trkpt>
      <trkpt lat="43.72881" lon="7.15331">
        <ele>298.45382</ele>
        <time>2011-05-28T17:46:59Z</time>
      </trkpt>
      <trkpt lat="43.72891" lon="7.15331">
        <ele>298.804804</ele>
        <time>2011-05-28T17:47:03Z</time>
      </trkpt>
      <trkpt lat="43.72902" lon="7.15329">
        <ele>299.113765</ele>
        <time>2011-05-28T17:47:08Z</time>
      </trkpt>
      <trkpt lat="43.72912" lon="7.15332">
        <ele>299.357587</ele>
        <time>2011-05-28T17:47:12Z</time>
      </trkpt>
      <trkpt lat="43.72921" lon="7.15339">
        <ele>299.511774</ele>
        <time>2011-05-28T17:47:16Z</time>
      </trkpt>
      <trkpt lat="43.7293" lon="7.15347">
        <ele>299.578502</ele>
        <time>2011-05-28T17:47:21Z</time>
      </trkpt>
      <trkpt lat="43.72935" lon="7.1536">
        <ele>299.593382</ele>
        <time>2011-05-28T17:47:27Z</time>
      </trkpt>
      <trkpt lat="43.72938" lon="7.15372">
        <ele>299.612514</ele>
        <time>2011-05-28T17:47:31Z</time>
      </trkpt>
      <trkpt lat="43.72941" lon="7.15387">
        <ele>299.685991</ele>
        <time>2011-05-28T17:47:36Z</time>
      </trkpt>
      <trkpt lat="43.72942" lon="7.15402">
        <ele>299.849112</ele>
        <time>2011-05-28T17:47:42Z</time>
      </trkpt>
      <trkpt lat="43.72946" lon="7.15416">
        <ele>300.104887</ele>
        <time>2011-05-28T17:47:46Z</time>
      </trkpt>
      <trkpt lat="43.72949" lon="7.15428">
        <ele>300.424545</ele>
        <time>2011-05-28T17:47:49Z</time>
      </trkpt>
      <trkpt lat="43.72955" lon="7.1544">
        <ele>300.78478</ele>
        <time>2011-05-28T17:47:53Z</time>
      </trkpt>
      <trkpt lat="43.72961" lon="7.15451">
        <ele>301.170786</ele>
        <time>2011-05-28T17:47:57Z</time>
      </trkpt>
      <trkpt lat="43.7297" lon="7.15459">
        <ele>301.525973</ele>
        <time>2011-05-28T17:48:01Z</time>
      </trkpt>
      <trkpt lat="43.72978" lon="7.15465">
        <ele>301.802156</ele>
        <time>2011-05-28T17:48:04Z</time>
      </trkpt>
      <trkpt lat="43.72989" lon="7.1547">
        <ele>302.029415</ele>
        <time>2011-05-28T17:48:08Z</time>
      </trkpt>
      <trkpt lat="43.72999" lon="7.15473">
        <ele>302.268321</ele>
        <time>2011-05-28T17:48:13Z</time>
      </trkpt>
      <trkpt lat="43.73008" lon="7.15473">
        <ele>302.526583</ele>
        <time>2011-05-28T17:48:20Z</time>
      </trkpt>
      <trkpt lat="43.73019" lon="7.15478">
        <ele>302.776587</ele>
        <time>2011-05-28T17:48:25Z</time>
      </trkpt>
      <trkpt lat="43.73029" lon="7.15482">
        <ele>303.006223</ele>
        <time>2011-05-28T17:48:29Z</time>
      </trkpt>
      <trkpt lat="43.73038" lon="7.15484">
        <ele>303.253348</ele>
        <time>2011-05-28T17:48:33Z</time>
      </trkpt>
      <trkpt lat="43.73047" lon="7.15481">
        <ele>303.570992</ele>
        <time>2011-05-28T17:48:39Z</time>
      </trkpt>
      <trkpt lat="43.73058" lon="7.1548">
        <ele>303.959955</ele>
        <time>2011-05-28T17:48:45Z</time>
      </trkpt>
      <trkpt lat="43.73067" lon="7.15475">
        <ele>304.369773</ele>
        <time>2011-05-28T17:48:49Z</time>
      </trkpt>
      <trkpt lat="43.73076" lon="7.15466">
        <ele>304.7894</ele>
        <time>2011-05-28T17:48:54Z</time>
      </trkpt>
      <trkpt lat="43.73086" lon="7.15463">
        <ele>305.249322</ele>
        <time>2011-05-28T17:48:59Z</time>
      </trkpt>
      <trkpt lat="43.73095" lon="7.15461">
        <ele>305.742189</ele>
        <time>2011-05-28T17:49:03Z</time>
      </trkpt>
      <trkpt lat="43.73106" lon="7.15457">
        <ele>306.208796</ele>
        <time>2011-05-28T17:49:08Z</time>
      </trkpt>
      <trkpt lat="43.73115" lon="7.15451">
        <ele>306.610469</ele>
        <time>2011-05-28T17:49:12Z</time>
      </trkpt>
      <trkpt lat="43.73123" lon="7.15447">
        <ele>306.962713</ele>
        <time>2011-05-28T17:49:16Z</time>
      </trkpt>
      <trkpt lat="43.73134" lon="7.15445">
        <ele>307.329887</ele>
        <time>2011-05-28T17:49:21Z</time>
      </trkpt>
      <trkpt lat="43.73143" lon="7.15448">
        <ele>307.75425</ele>
        <time>2011-05-28T17:49:25Z</time>
      </trkpt>
      <trkpt lat="43.73152" lon="7.1545">
        <ele>308.202885</ele>
        <time>2011-05-28T17:49:29Z</time>
      </trkpt>
      <trkpt lat="43.73163" lon="7.15453">
        <ele>308.639222</ele>
        <time>2011-05-28T17:49:33Z</time>
      </trkpt>
      <trkpt lat="43.73173" lon="7.15458">
        <ele>309.063929</ele>
        <time>2011-05-28T17:49:37Z</time>
      </trkpt>
      <trkpt lat="43.73181" lon="7.15466">
        <ele>309.469032</ele>
        <time>2011-05-28T17:49:42Z</time>
      </trkpt>
      <trkpt lat="43.73189" lon="7.15474">
        <ele>309.836733</ele>
        <time>2011-05-28T17:49:47Z</time>
      </trkpt>
      <trkpt lat="43.73198" lon="7.15477">
        <ele>310.15662</ele>
        <time>2011-05-28T17:49:51Z</time>
      </trkpt>
      <trkpt lat="43.73208" lon="7.15483">
        <ele>310.458208</ele>
        <time>2011-05-28T17:49:55Z</time>
      </trkpt>
      <trkpt lat="43.73217" lon="7.15491">
        <ele>310.82303</ele>
        <time>2011-05-28T17:49:59Z</time>
      </trkpt>
      <trkpt lat="43.73217" lon="7.15491">
        <ele>311.222435</ele>
        <time>2011-05-28T17:50:16Z</time>
      </trkpt>
      <trkpt lat="43.73217" lon="7.15491">
        <ele>311.500259</ele>
        <time>2011-05-28T17:50:37Z</time>
      </trkpt>
      <trkpt lat="43.73241" lon="7.15472">
        <ele>311.668837</ele>
        <time>2011-05-28T17:51:43Z</time>
      </trkpt>
      <trkpt lat="43.73241" lon="7.15472">
        <ele>311.852537</ele>
        <time>2011-05-28T17:51:46Z</time>
      </trkpt>
      <trkpt lat="43.73241" lon="7.15472">
        <ele>311.937595</ele>
        <time>2011-05-28T17:51:59Z</time>
      </trkpt>
      <trkpt lat="43.73246" lon="7.15435">
        <ele>311.803768</ele>
        <time>2011-05-28T17:52:35Z</time>
      </trkpt>
      <trkpt lat="43.7325" lon="7.15422">
        <ele>311.600391</ele>
        <time>2011-05-28T17:52:41Z</time>
      </trkpt>
      <trkpt lat="43.73254" lon="7.1541">
        <ele>311.675785</ele>
        <time>2011-05-28T17:52:47Z</time>
      </trkpt>
      <trkpt lat="43.73257" lon="7.15397">
        <ele>312.590163</ele>
        <time>2011-05-28T17:52:53Z</time>
      </trkpt>
      <trkpt lat="43.73259" lon="7.15384">
        <ele>314.373256</ele>
        <time>2011-05-28T17:53:00Z</time>
      </trkpt>
      <trkpt lat="43.73261" lon="7.15371">
        <ele>316.176442</ele>
        <time>2011-05-28T17:53:08Z</time>
      </trkpt>
      <trkpt lat="43.73261" lon="7.15371">
        <ele>317.296421</ele>
        <time>2011-05-28T17:53:24Z</time>
      </trkpt>
      <trkpt lat="43.73261" lon="7.15371">
        <ele>317.718816</ele>
        <time>2011-05-28T17:53:41Z</time>
      </trkpt>
      <trkpt lat="43.73254" lon="7.15327">
        <ele>317.811085</ele>
        <time>2011-05-28T17:53:58Z</time>
      </trkpt>
      <trkpt lat="43.73245" lon="7.1532">
        <ele>318.038341</ele>
        <time>2011-05-28T17:54:05Z</time>
      </trkpt>
      <trkpt lat="43.73245" lon="7.1532">
        <ele>318.470367</ele>
        <time>2011-05-28T17:54:17Z</time>
      </trkpt>
      <trkpt lat="43.73224" lon="7.15292">
        <ele>318.979795</ele>
        <time>2011-05-28T17:54:39Z</time>
      </trkpt>
      <trkpt lat="43.73219" lon="7.1528">
        <ele>319.982187</ele>
        <time>2011-05-28T17:54:45Z</time>
      </trkpt>
      <trkpt lat="43.73216" lon="7.15267">
        <ele>321.718317</ele>
        <time>2011-05-28T17:54:52Z</time>
      </trkpt>
      <trkpt lat="43.73215" lon="7.15253">
        <ele>323.723081</ele>
        <time>2011-05-28T17:54:57Z</time>
      </trkpt>
      <trkpt lat="43.73212" lon="7.1524">
        <ele>325.547055</ele>
        <time>2011-05-28T17:55:01Z</time>
      </trkpt>
      <trkpt lat="43.7321" lon="7.15226">
        <ele>327.018833</ele>
        <time>2011-05-28T17:55:06Z</time>
      </trkpt>
      <trkpt lat="43.73209" lon="7.15211">
        <ele>328.061912</ele>
        <time>2011-05-28T17:55:11Z</time>
      </trkpt>
      <trkpt lat="43.73208" lon="7.15198">
        <ele>328.798262</ele>
        <time>2011-05-28T17:55:15Z</time>
      </trkpt>
      <trkpt lat="43.73207" lon="7.15185">
        <ele>329.396245</ele>
        <time>2011-05-28T17:55:21Z</time>
      </trkpt>
      <trkpt lat="43.73203" lon="7.15174">
        <ele>330.072491</ele>
        <time>2011-05-28T17:55:28Z</time>
      </trkpt>
      <trkpt lat="43.73202" lon="7.15161">
        <ele>330.914313</ele>
        <time>2011-05-28T17:55:38Z</time>
      </trkpt>
      <trkpt lat="43.73205" lon="7.15149">
        <ele>331.866659</ele>
        <time>2011-05-28T17:55:46Z</time>
      </trkpt>
      <trkpt lat="43.73206" lon="7.15135">
        <ele>332.899517</ele>
        <time>2011-05-28T17:55:55Z</time>
      </trkpt>
      <trkpt lat="43.73204" lon="7.15123">
        <ele>334.056017</ele>
        <time>2011-05-28T17:56:05Z</time>
      </trkpt>
      <trkpt lat="43.73202" lon="7.15109">
        <ele>335.298318</ele>
        <time>2011-05-28T17:56:13Z</time>
      </trkpt>
      <trkpt lat="43.73202" lon="7.15096">
        <ele>336.468182</ele>
        <time>2011-05-28T17:56:21Z</time>
      </trkpt>
      <trkpt lat="43.73206" lon="7.15084">
        <ele>337.473966</ele>
        <time>2011-05-28T17:56:28Z</time>
      </trkpt>
      <trkpt lat="43.73206" lon="7.15084">
        <ele>338.250894</ele>
        <time>2011-05-28T17:56:37Z</time>
      </trkpt>
      <trkpt lat="43.73202" lon="7.15066">
        <ele>338.782542</ele>
        <time>2011-05-28T17:56:50Z</time>
      </trkpt>
      <trkpt lat="43.732" lon="7.15051">
        <ele>339.268928</ele>
        <time>2011-05-28T17:56:55Z</time>
      </trkpt>
      <trkpt lat="43.73198" lon="7.15034">
        <ele>339.843213</ele>
        <time>2011-05-28T17:56:59Z</time>
      </trkpt>
      <trkpt lat="43.73199" lon="7.15011">
        <ele>340.35221</ele>
        <time>2011-05-28T17:57:02Z</time>
      </trkpt>
      <trkpt lat="43.73196" lon="7.14991">
        <ele>340.665394</ele>
        <time>2011-05-28T17:57:05Z</time>
      </trkpt>
      <trkpt lat="43.73186" lon="7.14978">
        <ele>340.897648</ele>
        <time>2011-05-28T17:57:08Z</time>
      </trkpt>
      <trkpt lat="43.73174" lon="7.14971">
        <ele>341.308885</ele>
        <time>2011-05-28T17:57:11Z</time>
      </trkpt>
      <trkpt lat="43.73166" lon="7.14957">
        <ele>342.03275</ele>
        <time>2011-05-28T17:57:14Z</time>
      </trkpt>
      <trkpt lat="43.73162" lon="7.14943">
        <ele>344.048202</ele>
        <time>2011-05-28T17:57:17Z</time>
      </trkpt>
      <trkpt lat="43.73167" lon="7.14931">
        <ele>348.656988</ele>
        <time>2011-05-28T17:57:25Z</time>
      </trkpt>
      <trkpt lat="43.73167" lon="7.14931">
        <ele>354.494946</ele>
        <time>2011-05-28T17:57:53Z</time>
      </trkpt>
      <trkpt lat="43.73182" lon="7.1493">
        <ele>358.516612</ele>
        <time>2011-05-28T17:57:57Z</time>
      </trkpt>
      <trkpt lat="43.73193" lon="7.1493">
        <ele>359.877402</ele>
        <time>2011-05-28T17:58:01Z</time>
      </trkpt>
      <trkpt lat="43.73197" lon="7.14919">
        <ele>359.192583</ele>
        <time>2011-05-28T17:58:07Z</time>
      </trkpt>
      <trkpt lat="43.73197" lon="7.14919">
        <ele>357.248328</ele>
        <time>2011-05-28T17:58:14Z</time>
      </trkpt>
      <trkpt lat="43.73197" lon="7.14919">
        <ele>355.419209</ele>
        <time>2011-05-28T17:58:43Z</time>
      </trkpt>
    </trkseg>
  </trk>
</gpx>